Observation data for Palo Duro Canyon State Park Rim on 02/22/2019      Previous  Date  Next       Current Mesonet Observations  Soil Data  Daily Summary Page  Observations in Plain Language
KPD1 220600Z 14010KT 03/M05 A2991 RMK A01 T00251046  RH  059%=      5-min Rain = 0
KPD1 220601Z 14009G15KT 02/M05 A2991 RMK A01 T00241047  RH  060%=      5-min Rain = 0
KPD1 220602Z 13009G15KT 02/M05 A2991 RMK A01 T00241047  RH  060%=      5-min Rain = 0
KPD1 220603Z 14010KT 02/M05 A2991 RMK A01 T00241046  RH  060%=      5-min Rain = 0
KPD1 220604Z 14010KT 02/M05 A2991 RMK A01 T00241046  RH  060%=      5-min Rain = 0
KPD1 220605Z 14011KT 02/M05 A2992 RMK A01 T00231046  RH  060%=      5-min Rain = 0
KPD1 220606Z 14011KT 02/M05 A2991 RMK A01 T00231046  RH  060%=      5-min Rain = 0
KPD1 220607Z 14009G16KT 02/M05 A2991 RMK A01 T00231046  RH  060%=      5-min Rain = 0
KPD1 220608Z 13010KT 02/M05 A2991 RMK A01 T00231046  RH  060%=      5-min Rain = 0
KPD1 220609Z 13009KT 02/M05 A2991 RMK A01 T00231045  RH  060%=      5-min Rain = 0
KPD1 220610Z 14010KT 02/M05 A2991 RMK A01 T00231046  RH  060%=      5-min Rain = 0
KPD1 220611Z 14010KT 02/M05 A2991 RMK A01 T00221046  RH  061%=      5-min Rain = 0
KPD1 220612Z 14011KT 02/M05 A2991 RMK A01 T00221046  RH  061%=      5-min Rain = 0
KPD1 220613Z 14009KT 02/M05 A2991 RMK A01 T00221046  RH  061%=      5-min Rain = 0
KPD1 220614Z 13010G15KT 02/M05 A2991 RMK A01 T00221045  RH  061%=      5-min Rain = 0
KPD1 220615Z 14011KT 02/M05 A2991 RMK A01 T00221045  RH  061%=      5-min Rain = 0
KPD1 220616Z 13009KT 02/M04 A2991 RMK A01 T00221044  RH  061%=      5-min Rain = 0
KPD1 220617Z 13008KT 02/M05 A2991 RMK A01 T00221045  RH  061%=      5-min Rain = 0
KPD1 220618Z 13009KT 02/M05 A2991 RMK A01 T00211045  RH  061%=      5-min Rain = 0
KPD1 220619Z 14009KT 02/M05 A2991 RMK A01 T00211045  RH  061%=      5-min Rain = 0
KPD1 220620Z 13010G15KT 02/M05 A2991 RMK A01 T00211045  RH  062%=      5-min Rain = 0
KPD1 220621Z 14010KT 02/M04 A2991 RMK A01 T00211044  RH  062%=      5-min Rain = 0
KPD1 220622Z 13012KT 02/M04 A2991 RMK A01 T00211044  RH  062%=      5-min Rain = 0
KPD1 220623Z 13010KT 02/M04 A2991 RMK A01 T00211044  RH  062%=      5-min Rain = 0
KPD1 220624Z 13010KT 02/M04 A2991 RMK A01 T00211044  RH  062%=      5-min Rain = 0
KPD1 220625Z 13011KT 02/M04 A2991 RMK A01 T00211044  RH  062%=      5-min Rain = 0
KPD1 220626Z 13010KT 02/M04 A2991 RMK A01 T00211043  RH  063%=      5-min Rain = 0
KPD1 220627Z 13008KT 02/M04 A2991 RMK A01 T00201043  RH  063%=      5-min Rain = 0
KPD1 220628Z 14011KT 02/M04 A2991 RMK A01 T00201044  RH  063%=      5-min Rain = 0
KPD1 220629Z 13008KT 02/M04 A2991 RMK A01 T00201043  RH  063%=      5-min Rain = 0
KPD1 220630Z 13008G13KT 02/M04 A2991 RMK A01 T00201042  RH  063%=      5-min Rain = 0
KPD1 220631Z 13008KT 02/M04 A2991 RMK A01 T00201042  RH  063%=      5-min Rain = 0
KPD1 220632Z 13007KT 02/M04 A2991 RMK A01 T00191043  RH  063%=      5-min Rain = 0
KPD1 220633Z 13010KT 02/M04 A2991 RMK A01 T00181043  RH  064%=      5-min Rain = 0
KPD1 220634Z 13008KT 02/M04 A2991 RMK A01 T00181042  RH  064%=      5-min Rain = 0
KPD1 220635Z 13009KT 02/M04 A2991 RMK A01 T00181042  RH  064%=      5-min Rain = 0
KPD1 220636Z 13009KT 02/M04 A2991 RMK A01 T00181042  RH  065%=      5-min Rain = 0
KPD1 220637Z 13007KT 02/M04 A2991 RMK A01 T00181041  RH  065%=      5-min Rain = 0
KPD1 220638Z 13013KT 02/M04 A2991 RMK A01 T00181041  RH  065%=      5-min Rain = 0
KPD1 220639Z 13009KT 02/M04 A2991 RMK A01 T00181041  RH  065%=      5-min Rain = 0
KPD1 220640Z 14009G14KT 02/M04 A2991 RMK A01 T00181041  RH  065%=      5-min Rain = 0
KPD1 220641Z 13009KT 02/M04 A2991 RMK A01 T00171041  RH  065%=      5-min Rain = 0
KPD1 220642Z 13010KT 02/M04 A2991 RMK A01 T00171041  RH  065%=      5-min Rain = 0
KPD1 220643Z 14011G16KT 02/M04 A2991 RMK A01 T00171040  RH  066%=      5-min Rain = 0
KPD1 220644Z 13010KT 02/M04 A2991 RMK A01 T00171039  RH  066%=      5-min Rain = 0
KPD1 220645Z 13011KT 02/M04 A2991 RMK A01 T00171039  RH  066%=      5-min Rain = 0
KPD1 220646Z 13008KT 02/M04 A2991 RMK A01 T00171039  RH  066%=      5-min Rain = 0
KPD1 220647Z 14007G12KT 02/M04 A2991 RMK A01 T00171039  RH  067%=      5-min Rain = 0
KPD1 220648Z 13009KT 02/M04 A2991 RMK A01 T00161040  RH  066%=      5-min Rain = 0
KPD1 220649Z 13009KT 02/M04 A2991 RMK A01 T00161039  RH  067%=      5-min Rain = 0
KPD1 220650Z 14008KT 02/M04 A2991 RMK A01 T00161039  RH  067%=      5-min Rain = 0
KPD1 220651Z 13010G16KT 02/M04 A2991 RMK A01 T00151039  RH  067%=      5-min Rain = 0
KPD1 220652Z 13009KT 02/M04 A2991 RMK A01 T00161038  RH  068%=      5-min Rain = 0
KPD1 220653Z 14010KT 02/M04 A2991 RMK A01 T00151038  RH  068%=      5-min Rain = 0
KPD1 220654Z 14011KT 01/M04 A2991 RMK A01 T00141039  RH  068%=      5-min Rain = 0
KPD1 220655Z 13010KT 01/M04 A2991 RMK A01 T00141038  RH  068%=      5-min Rain = 0
KPD1 220656Z 14008G14KT 01/M04 A2991 RMK A01 T00141039  RH  068%=      5-min Rain = 0
KPD1 220657Z 13010G15KT 01/M04 A2991 RMK A01 T00141039  RH  068%=      5-min Rain = 0
KPD1 220658Z 14008KT 01/M04 A2991 RMK A01 T00141038  RH  068%=      5-min Rain = 0
KPD1 220659Z 14010KT 01/M04 A2991 RMK A01 T00131039  RH  068%=      5-min Rain = 0
KPD1 220700Z 14012KT 01/M04 A2992 RMK A01 T00141038  RH  068%=      5-min Rain = 0
KPD1 220701Z 13011KT 01/M04 A2992 RMK A01 T00141037  RH  069%=      5-min Rain = 0
KPD1 220702Z 13012KT 01/M04 A2992 RMK A01 T00141036  RH  069%=      5-min Rain = 0
KPD1 220703Z 14009KT 01/M04 A2992 RMK A01 T00141036  RH  069%=      5-min Rain = 0
KPD1 220704Z 13009KT 01/M04 A2992 RMK A01 T00141036  RH  069%=      5-min Rain = 0
KPD1 220705Z 14007KT 01/M04 A2991 RMK A01 T00131037  RH  069%=      5-min Rain = 0
KPD1 220706Z 13009KT 01/M04 A2991 RMK A01 T00131037  RH  069%=      5-min Rain = 0
KPD1 220707Z 14007KT 01/M04 A2991 RMK A01 T00121038  RH  069%=      5-min Rain = 0
KPD1 220708Z 13009KT 01/M04 A2991 RMK A01 T00121038  RH  070%=      5-min Rain = 0
KPD1 220709Z 13010KT 01/M04 A2991 RMK A01 T00111037  RH  070%=      5-min Rain = 0
KPD1 220710Z 13009KT 01/M04 A2992 RMK A01 T00121036  RH  070%=      5-min Rain = 0
KPD1 220711Z 14008KT 01/M04 A2991 RMK A01 T00111036  RH  071%=      5-min Rain = 0
KPD1 220712Z 14008KT 01/M04 A2991 RMK A01 T00111036  RH  071%=      5-min Rain = 0
KPD1 220713Z 13008KT 01/M04 A2991 RMK A01 T00111036  RH  071%=      5-min Rain = 0
KPD1 220714Z 13009KT 01/M04 A2991 RMK A01 T00111035  RH  071%=      5-min Rain = 0
KPD1 220715Z 14009KT 01/M04 A2991 RMK A01 T00111035  RH  071%=      5-min Rain = 0
KPD1 220716Z 13006KT 01/M04 A2991 RMK A01 T00101036  RH  071%=      5-min Rain = 0
KPD1 220717Z 14008G13KT 01/M04 A2991 RMK A01 T00101037  RH  071%=      5-min Rain = 0
KPD1 220718Z 14008KT 01/M04 A2992 RMK A01 T00101035  RH  072%=      5-min Rain = 0
KPD1 220719Z 14008KT 01/M04 A2992 RMK A01 T00101035  RH  072%=      5-min Rain = 0
KPD1 220720Z 13009KT 01/M04 A2992 RMK A01 T00101035  RH  072%=      5-min Rain = 0
KPD1 220721Z 13008KT 01/M04 A2992 RMK A01 T00101035  RH  072%=      5-min Rain = 0
KPD1 220722Z 14007KT 01/M03 A2992 RMK A01 T00101034  RH  072%=      5-min Rain = 0
KPD1 220723Z 13007KT 01/M03 A2992 RMK A01 T00101034  RH  072%=      5-min Rain = 0
KPD1 220724Z 13006KT 01/M03 A2992 RMK A01 T00101034  RH  072%=      5-min Rain = 0
KPD1 220725Z 14008KT 01/M03 A2992 RMK A01 T00101034  RH  073%=      5-min Rain = 0
KPD1 220726Z 13009KT 01/M03 A2992 RMK A01 T00091034  RH  073%=      5-min Rain = 0
KPD1 220727Z 14007KT 01/M03 A2992 RMK A01 T00091033  RH  073%=      5-min Rain = 0
KPD1 220728Z 13009KT 01/M03 A2992 RMK A01 T00091033  RH  073%=      5-min Rain = 0
KPD1 220729Z 14008G14KT 01/M03 A2992 RMK A01 T00091032  RH  074%=      5-min Rain = 0
KPD1 220730Z 14007KT 01/M03 A2992 RMK A01 T00101031  RH  074%=      5-min Rain = 0
KPD1 220731Z 14008KT 01/M03 A2992 RMK A01 T00101031  RH  074%=      5-min Rain = 0
KPD1 220732Z 13008KT 01/M03 A2992 RMK A01 T00091032  RH  074%=      5-min Rain = 0
KPD1 220733Z 14006KT 01/M03 A2993 RMK A01 T00091032  RH  074%=      5-min Rain = 0
KPD1 220734Z 13005KT 01/M03 A2993 RMK A01 T00091032  RH  074%=      5-min Rain = 0
KPD1 220735Z 15004KT 01/M03 A2993 RMK A01 T00081033  RH  074%=      5-min Rain = 0
KPD1 220736Z 14004KT 01/M03 A2993 RMK A01 T00081033  RH  074%=      5-min Rain = 0
KPD1 220737Z 14007KT 01/M03 A2993 RMK A01 T00071034  RH  074%=      5-min Rain = 0
KPD1 220738Z 14007KT 01/M03 A2993 RMK A01 T00071033  RH  075%=      5-min Rain = 0
KPD1 220739Z 14005KT 01/M03 A2993 RMK A01 T00071032  RH  075%=      5-min Rain = 0
KPD1 220740Z 13009KT 01/M03 A2993 RMK A01 T00071031  RH  076%=      5-min Rain = 0
KPD1 220741Z 15008KT 01/M03 A2993 RMK A01 T00081030  RH  076%=      5-min Rain = 0
KPD1 220742Z 14006KT 01/M03 A2993 RMK A01 T00071030  RH  076%=      5-min Rain = 0
KPD1 220743Z 13004KT 01/M03 A2993 RMK A01 T00081029  RH  076%=      5-min Rain = 0
KPD1 220744Z 14004KT 01/M03 A2993 RMK A01 T00071030  RH  076%=      5-min Rain = 0
KPD1 220745Z 15004KT 01/M03 A2993 RMK A01 T00071031  RH  076%=      5-min Rain = 0
KPD1 220746Z 15003KT 01/M03 A2993 RMK A01 T00071031  RH  076%=      5-min Rain = 0
KPD1 220747Z 14003KT 01/M03 A2993 RMK A01 T00061031  RH  076%=      5-min Rain = 0
KPD1 220748Z 12003KT 01/M03 A2993 RMK A01 T00061031  RH  076%=      5-min Rain = 0
KPD1 220749Z 13003KT 01/M03 A2993 RMK A01 T00051031  RH  077%=      5-min Rain = 0
KPD1 220750Z 14003KT 01/M03 A2993 RMK A01 T00051031  RH  077%=      5-min Rain = 0
KPD1 220751Z 12003KT 00/M03 A2993 RMK A01 T00041031  RH  077%=      5-min Rain = 0
KPD1 220752Z 13003KT 00/M03 A2993 RMK A01 T00041030  RH  078%=      5-min Rain = 0
KPD1 220753Z 13003KT 01/M03 A2993 RMK A01 T00051029  RH  078%=      5-min Rain = 0
KPD1 220754Z 14004KT 00/M03 A2993 RMK A01 T00041030  RH  078%=      5-min Rain = 0
KPD1 220755Z 13004KT 00/M03 A2993 RMK A01 T00041030  RH  078%=      5-min Rain = 0
KPD1 220756Z 14004KT 00/M03 A2993 RMK A01 T00041030  RH  078%=      5-min Rain = 0
KPD1 220757Z 14004KT 00/M03 A2993 RMK A01 T00041029  RH  078%=      5-min Rain = 0
KPD1 220758Z 16003KT 00/M03 A2993 RMK A01 T00031030  RH  079%=      5-min Rain = 0
KPD1 220759Z 16003KT 00/M03 A2993 RMK A01 T00031031  RH  078%=      5-min Rain = 0
KPD1 220800Z 14004KT 00/M03 A2994 RMK A01 T00021030  RH  079%=      5-min Rain = 0
KPD1 220801Z 15003KT 00/M03 A2994 RMK A01 T00021030  RH  079%=      5-min Rain = 0
KPD1 220802Z 14004KT 00/M03 A2994 RMK A01 T00021029  RH  079%=      5-min Rain = 0
KPD1 220803Z 15004KT 00/M03 A2994 RMK A01 T00021028  RH  080%=      5-min Rain = 0
KPD1 220804Z 15003KT 00/M03 A2994 RMK A01 T00021028  RH  080%=      5-min Rain = 0
KPD1 220805Z 15004KT 00/M03 A2994 RMK A01 T00021028  RH  080%=      5-min Rain = 0
KPD1 220806Z 15004KT 00/M03 A2994 RMK A01 T00021028  RH  080%=      5-min Rain = 0
KPD1 220807Z 15004KT 00/M03 A2994 RMK A01 T00021028  RH  080%=      5-min Rain = 0
KPD1 220808Z 14004KT 00/M03 A2994 RMK A01 T00021028  RH  080%=      5-min Rain = 0
KPD1 220809Z 15004KT 00/M03 A2994 RMK A01 T00011029  RH  080%=      5-min Rain = 0
KPD1 220810Z 13005KT 00/M03 A2994 RMK A01 T00011029  RH  080%=      5-min Rain = 0
KPD1 220811Z 14006KT 00/M03 A2994 RMK A01 T00011028  RH  081%=      5-min Rain = 0
KPD1 220812Z 13005KT 00/M03 A2994 RMK A01 T00011028  RH  081%=      5-min Rain = 0
KPD1 220813Z 13004KT 00/M03 A2993 RMK A01 T00011027  RH  081%=      5-min Rain = 0
KPD1 220814Z 13005KT 00/M03 A2993 RMK A01 T00011027  RH  082%=      5-min Rain = 0
KPD1 220815Z 13006KT 00/M03 A2993 RMK A01 T00011026  RH  082%=      5-min Rain = 0
KPD1 220816Z 13006KT 00/M03 A2993 RMK A01 T00011026  RH  082%=      5-min Rain = 0
KPD1 220817Z 14005KT 00/M03 A2993 RMK A01 T00011025  RH  083%=      5-min Rain = 0
KPD1 220818Z 13006KT 00/M03 A2993 RMK A01 T00011025  RH  083%=      5-min Rain = 0
KPD1 220819Z 13005KT 00/M02 A2993 RMK A01 T00011024  RH  083%=      5-min Rain = 0
KPD1 220820Z 13005KT 00/M02 A2993 RMK A01 T00011024  RH  083%=      5-min Rain = 0
KPD1 220821Z 13004KT 00/M02 A2993 RMK A01 T00011024  RH  083%=      5-min Rain = 0
KPD1 220822Z 13004KT 00/M02 A2993 RMK A01 T00011023  RH  083%=      5-min Rain = 0
KPD1 220823Z 13004KT 00/M02 A2993 RMK A01 T00011024  RH  083%=      5-min Rain = 0
KPD1 220824Z 13004KT 00/M03 A2993 RMK A01 T00011025  RH  083%=      5-min Rain = 0
KPD1 220825Z 14004KT 00/M02 A2994 RMK A01 T00011024  RH  083%=      5-min Rain = 0
KPD1 220826Z 13005KT 00/02 A2994 RMK A01 T00000-24  RH  083%=      5-min Rain = 0
KPD1 220827Z 14005KT 00/02 A2994 RMK A01 T00000-24  RH  084%=      5-min Rain = 0
KPD1 220828Z 14005KT 00/02 A2994 RMK A01 T00000-24  RH  084%=      5-min Rain = 0
KPD1 220829Z 14004KT M00/M02 A2994 RMK A01 T10011024  RH  084%=      5-min Rain = 0
KPD1 220830Z 14004KT 00/02 A2994 RMK A01 T00-00-24  RH  084%=      5-min Rain = 0
KPD1 220831Z 15004KT M00/M02 A2994 RMK A01 T10011024  RH  084%=      5-min Rain = 0
KPD1 220832Z 14004KT 00/02 A2994 RMK A01 T00-00-24  RH  084%=      5-min Rain = 0
KPD1 220833Z 15003KT M00/M02 A2995 RMK A01 T10011024  RH  085%=      5-min Rain = 0
KPD1 220834Z 14004KT 00/02 A2995 RMK A01 T00-00-23  RH  085%=      5-min Rain = 0
KPD1 220835Z 14004KT M00/M02 A2995 RMK A01 T10011024  RH  085%=      5-min Rain = 0
KPD1 220836Z 16004KT M00/M02 A2995 RMK A01 T10011024  RH  085%=      5-min Rain = 0
KPD1 220837Z 15007KT M00/M02 A2995 RMK A01 T10011022  RH  085%=      5-min Rain = 0
KPD1 220838Z 15006KT 00/02 A2995 RMK A01 T00000-21  RH  086%=      5-min Rain = 0
KPD1 220839Z 15007KT 00/M02 A2995 RMK A01 T00011019  RH  087%=      5-min Rain = 0
KPD1 220840Z 14004KT 00/M02 A2996 RMK A01 T00021018  RH  087%=      5-min Rain = 0
KPD1 220841Z 14003KT 00/M02 A2996 RMK A01 T00011018  RH  087%=      5-min Rain = 0
KPD1 220842Z 15005KT 00/M02 A2996 RMK A01 T00021018  RH  086%=      5-min Rain = 0
KPD1 220843Z 14005KT 00/M02 A2996 RMK A01 T00021018  RH  086%=      5-min Rain = 0
KPD1 220844Z 15005KT 00/M02 A2996 RMK A01 T00031017  RH  087%=      5-min Rain = 0
KPD1 220845Z 14004KT 00/M02 A2996 RMK A01 T00031016  RH  087%=      5-min Rain = 0
KPD1 220846Z 16004KT 00/M02 A2996 RMK A01 T00031017  RH  087%=      5-min Rain = 0
KPD1 220847Z 16006KT 00/M02 A2997 RMK A01 T00021017  RH  087%=      5-min Rain = 0
KPD1 220848Z 15005KT 00/M02 A2997 RMK A01 T00031016  RH  087%=      5-min Rain = 0
KPD1 220849Z 14005KT 00/M02 A2997 RMK A01 T00031016  RH  087%=      5-min Rain = 0
KPD1 220850Z 14007KT 00/M02 A2996 RMK A01 T00031016  RH  087%=      5-min Rain = 0
KPD1 220851Z 14007KT 00/M02 A2996 RMK A01 T00031016  RH  087%=      5-min Rain = 0
KPD1 220852Z 14006KT 00/M02 A2996 RMK A01 T00041015  RH  087%=      5-min Rain = 0
KPD1 220853Z 14006KT 00/M02 A2996 RMK A01 T00031015  RH  087%=      5-min Rain = 0
KPD1 220854Z 15005KT 00/M02 A2996 RMK A01 T00031015  RH  087%=      5-min Rain = 0
KPD1 220855Z 15005KT 00/M02 A2996 RMK A01 T00031015  RH  087%=      5-min Rain = 0
KPD1 220856Z 14006KT 00/M02 A2996 RMK A01 T00031016  RH  087%=      5-min Rain = 0
KPD1 220857Z 13006KT 00/M02 A2995 RMK A01 T00031016  RH  087%=      5-min Rain = 0
KPD1 220858Z 13008KT 00/M02 A2995 RMK A01 T00021016  RH  087%=      5-min Rain = 0
KPD1 220859Z 12006KT 00/M02 A2995 RMK A01 T00031016  RH  088%=      5-min Rain = 0
KPD1 220900Z 13009KT 00/M02 A2995 RMK A01 T00031015  RH  088%=      5-min Rain = 0
KPD1 220901Z 12009KT 00/M01 A2994 RMK A01 T00031014  RH  088%=      5-min Rain = 0
KPD1 220902Z 12007KT 00/M01 A2994 RMK A01 T00031014  RH  088%=      5-min Rain = 0
KPD1 220903Z 12006KT 00/M01 A2993 RMK A01 T00031014  RH  088%=      5-min Rain = 0
KPD1 220904Z 11006KT 00/M01 A2993 RMK A01 T00031014  RH  088%=      5-min Rain = 0
KPD1 220905Z 11004KT 00/M01 A2993 RMK A01 T00041013  RH  088%=      5-min Rain = 0
KPD1 220906Z 13007KT 00/M01 A2993 RMK A01 T00041014  RH  088%=      5-min Rain = 0
KPD1 220907Z 13008KT 00/M01 A2993 RMK A01 T00041013  RH  088%=      5-min Rain = 0
KPD1 220908Z 13005KT 00/M01 A2993 RMK A01 T00041013  RH  089%=      5-min Rain = 0
KPD1 220909Z 12005KT 00/M01 A2994 RMK A01 T00041013  RH  089%=      5-min Rain = 0
KPD1 220910Z 13005KT 00/M01 A2994 RMK A01 T00041013  RH  089%=      5-min Rain = 0
KPD1 220911Z 10005KT 00/M01 A2993 RMK A01 T00041012  RH  089%=      5-min Rain = 0
KPD1 220912Z 12006G11KT 00/M01 A2993 RMK A01 T00041012  RH  089%=      5-min Rain = 0
KPD1 220913Z 12009KT 01/M01 A2993 RMK A01 T00051011  RH  089%=      5-min Rain = 0
KPD1 220914Z 12006KT 01/M01 A2993 RMK A01 T00051011  RH  089%=      5-min Rain = 0
KPD1 220915Z 12006KT 01/M01 A2993 RMK A01 T00061010  RH  089%=      5-min Rain = 0
KPD1 220916Z 11009KT 01/M01 A2993 RMK A01 T00061010  RH  089%=      5-min Rain = 0
KPD1 220917Z 12009KT 01/M01 A2993 RMK A01 T00071009  RH  089%=      5-min Rain = 0
KPD1 220918Z 12007KT 01/M01 A2992 RMK A01 T00071009  RH  089%=      5-min Rain = 0
KPD1 220919Z 12008KT 01/M01 A2992 RMK A01 T00081008  RH  089%=      5-min Rain = 0
KPD1 220920Z 12007KT 01/M01 A2993 RMK A01 T00081008  RH  089%=      5-min Rain = 0
KPD1 220921Z 11006KT 01/M01 A2993 RMK A01 T00071010  RH  089%=      5-min Rain = 0
KPD1 220922Z 11007KT 01/M01 A2993 RMK A01 T00071009  RH  089%=      5-min Rain = 0
KPD1 220923Z 12006KT 01/M01 A2993 RMK A01 T00071009  RH  089%=      5-min Rain = 0
KPD1 220924Z 13006KT 01/M01 A2993 RMK A01 T00081008  RH  089%=      5-min Rain = 0
KPD1 220925Z 13005KT 01/M01 A2993 RMK A01 T00081009  RH  089%=      5-min Rain = 0
KPD1 220926Z 14008KT 01/M01 A2993 RMK A01 T00081008  RH  089%=      5-min Rain = 0
KPD1 220927Z 13008KT 01/M01 A2993 RMK A01 T00081008  RH  089%=      5-min Rain = 0
KPD1 220928Z 12006KT 01/M01 A2993 RMK A01 T00081008  RH  089%=      5-min Rain = 0
KPD1 220929Z 13008KT 01/M01 A2993 RMK A01 T00071009  RH  089%=      5-min Rain = 0
KPD1 220930Z 13009G14KT 01/M01 A2993 RMK A01 T00081008  RH  089%=      5-min Rain = 0
KPD1 220931Z 14012KT 01/M01 A2993 RMK A01 T00081008  RH  089%=      5-min Rain = 0
KPD1 220932Z 13009KT 01/M01 A2993 RMK A01 T00081008  RH  089%=      5-min Rain = 0
KPD1 220933Z 12008KT 01/M01 A2993 RMK A01 T00081007  RH  090%=      5-min Rain = 0
KPD1 220934Z 14007KT 01/M01 A2993 RMK A01 T00071008  RH  090%=      5-min Rain = 0
KPD1 220935Z 14008KT 01/M01 A2993 RMK A01 T00081007  RH  090%=      5-min Rain = 0
KPD1 220936Z 15008KT 01/M01 A2993 RMK A01 T00081007  RH  090%=      5-min Rain = 0
KPD1 220937Z 15010KT 01/M01 A2993 RMK A01 T00081006  RH  090%=      5-min Rain = 0
KPD1 220938Z 15008KT 01/M01 A2993 RMK A01 T00081007  RH  090%=      5-min Rain = 0
KPD1 220939Z 15008KT 01/M01 A2993 RMK A01 T00081006  RH  090%=      5-min Rain = 0
KPD1 220940Z 14009KT 01/M01 A2993 RMK A01 T00081007  RH  090%=      5-min Rain = 0
KPD1 220941Z 14010KT 01/M01 A2993 RMK A01 T00081007  RH  090%=      5-min Rain = 0
KPD1 220942Z 15008KT 01/M01 A2993 RMK A01 T00081007  RH  090%=      5-min Rain = 0
KPD1 220943Z 14008KT 01/M01 A2993 RMK A01 T00081007  RH  090%=      5-min Rain = 0
KPD1 220944Z 14008KT 01/M01 A2993 RMK A01 T00081007  RH  090%=      5-min Rain = 0
KPD1 220945Z 15010KT 01/M01 A2993 RMK A01 T00081007  RH  090%=      5-min Rain = 0
KPD1 220946Z 15008KT 01/M01 A2993 RMK A01 T00081007  RH  090%=      5-min Rain = 0
KPD1 220947Z 15010KT 01/M01 A2993 RMK A01 T00081007  RH  090%=      5-min Rain = 0
KPD1 220948Z 15009KT 01/M01 A2993 RMK A01 T00081007  RH  090%=      5-min Rain = 0
KPD1 220949Z 15008KT 01/M01 A2993 RMK A01 T00081007  RH  090%=      5-min Rain = 0
KPD1 220950Z 15006KT 01/M01 A2993 RMK A01 T00071007  RH  090%=      5-min Rain = 0
KPD1 220951Z 15007KT 01/M01 A2993 RMK A01 T00071007  RH  090%=      5-min Rain = 0
KPD1 220952Z 15007KT 01/M01 A2993 RMK A01 T00071007  RH  090%=      5-min Rain = 0
KPD1 220953Z 14007KT 01/M01 A2993 RMK A01 T00071007  RH  091%=      5-min Rain = 0
KPD1 220954Z 14009KT 01/M01 A2993 RMK A01 T00071007  RH  091%=      5-min Rain = 0
KPD1 220955Z 14008KT 01/M01 A2993 RMK A01 T00071007  RH  091%=      5-min Rain = 0
KPD1 220956Z 14007KT 01/M01 A2993 RMK A01 T00071007  RH  091%=      5-min Rain = 0
KPD1 220957Z 15007KT 01/M01 A2993 RMK A01 T00071007  RH  091%=      5-min Rain = 0
KPD1 220958Z 15006KT 01/M01 A2993 RMK A01 T00071007  RH  091%=      5-min Rain = 0
KPD1 220959Z 15007KT 01/M01 A2993 RMK A01 T00061007  RH  091%=      5-min Rain = 0
KPD1 221000Z 15008KT 01/M01 A2993 RMK A01 T00071007  RH  091%=      5-min Rain = 0
KPD1 221001Z 15008KT 01/M01 A2993 RMK A01 T00071006  RH  091%=      5-min Rain = 0
KPD1 221002Z 14007KT 01/M01 A2993 RMK A01 T00071006  RH  091%=      5-min Rain = 0
KPD1 221003Z 14007KT 01/M01 A2993 RMK A01 T00071006  RH  091%=      5-min Rain = 0
KPD1 221004Z 15008KT 01/M01 A2993 RMK A01 T00071006  RH  091%=      5-min Rain = 0
KPD1 221005Z 14007KT 01/M01 A2993 RMK A01 T00071006  RH  091%=      5-min Rain = 0
KPD1 221006Z 15008KT 01/M01 A2993 RMK A01 T00071006  RH  091%=      5-min Rain = 0
KPD1 221007Z 15008KT 01/M01 A2993 RMK A01 T00071006  RH  091%=      5-min Rain = 0
KPD1 221008Z 15007KT 01/M01 A2993 RMK A01 T00071006  RH  091%=      5-min Rain = 0
KPD1 221009Z 14007KT 01/M01 A2993 RMK A01 T00071006  RH  091%=      5-min Rain = 0
KPD1 221010Z 13007KT 01/M01 A2993 RMK A01 T00071006  RH  091%=      5-min Rain = 0
KPD1 221011Z 14007KT 01/M01 A2993 RMK A01 T00071006  RH  091%=      5-min Rain = 0
KPD1 221012Z 13007KT 01/M01 A2993 RMK A01 T00071006  RH  091%=      5-min Rain = 0
KPD1 221013Z 13008KT 01/M01 A2993 RMK A01 T00071006  RH  091%=      5-min Rain = 0
KPD1 221014Z 13006KT 01/M01 A2993 RMK A01 T00071006  RH  091%=      5-min Rain = 0
KPD1 221015Z 13008KT 01/M01 A2993 RMK A01 T00071005  RH  092%=      5-min Rain = 0
KPD1 221016Z 13009KT 01/M01 A2993 RMK A01 T00071006  RH  092%=      5-min Rain = 0
KPD1 221017Z 14009KT 01/M01 A2993 RMK A01 T00061006  RH  092%=      5-min Rain = 0
KPD1 221018Z 13008KT 01/M01 A2993 RMK A01 T00061006  RH  092%=      5-min Rain = 0
KPD1 221019Z 13007KT 01/M01 A2993 RMK A01 T00061006  RH  092%=      5-min Rain = 0
KPD1 221020Z 14007KT 01/M01 A2993 RMK A01 T00061005  RH  092%=      5-min Rain = 0
KPD1 221021Z 15008KT 01/M01 A2993 RMK A01 T00061005  RH  092%=      5-min Rain = 0
KPD1 221022Z 13007KT 01/M01 A2993 RMK A01 T00071005  RH  092%=      5-min Rain = 0
KPD1 221023Z 14007KT 01/M01 A2993 RMK A01 T00061005  RH  092%=      5-min Rain = 0
KPD1 221024Z 14007KT 01/M01 A2993 RMK A01 T00061005  RH  092%=      5-min Rain = 0
KPD1 221025Z 12007KT 01/M01 A2993 RMK A01 T00061005  RH  092%=      5-min Rain = 0
KPD1 221026Z 12007KT 01/M01 A2993 RMK A01 T00061005  RH  092%=      5-min Rain = 0
KPD1 221027Z 14005KT 01/M01 A2993 RMK A01 T00061005  RH  092%=      5-min Rain = 0
KPD1 221028Z 14007KT 01/M01 A2993 RMK A01 T00061005  RH  092%=      5-min Rain = 0
KPD1 221029Z 14007KT 01/M01 A2993 RMK A01 T00061005  RH  092%=      5-min Rain = 0
KPD1 221030Z 13009KT 01/M01 A2993 RMK A01 T00061005  RH  092%=      5-min Rain = 0
KPD1 221031Z 13007KT 01/M01 A2993 RMK A01 T00061005  RH  092%=      5-min Rain = 0
KPD1 221032Z 13008KT 01/M01 A2993 RMK A01 T00061005  RH  092%=      5-min Rain = 0
KPD1 221033Z 13008KT 01/M00 A2993 RMK A01 T00061004  RH  092%=      5-min Rain = 0
KPD1 221034Z 13008KT 01/M00 A2993 RMK A01 T00061004  RH  092%=      5-min Rain = 0
KPD1 221035Z 14009KT 01/M00 A2993 RMK A01 T00061004  RH  093%=      5-min Rain = 0
KPD1 221036Z 13006KT 01/M01 A2993 RMK A01 T00051005  RH  093%=      5-min Rain = 0
KPD1 221037Z 14007KT 01/M01 A2993 RMK A01 T00061005  RH  093%=      5-min Rain = 0
KPD1 221038Z 14009KT 01/M01 A2993 RMK A01 T00061005  RH  093%=      5-min Rain = 0
KPD1 221039Z 14010KT 01/M00 A2993 RMK A01 T00061004  RH  093%=      5-min Rain = 0
KPD1 221040Z 13006KT 01/M01 A2993 RMK A01 T00051005  RH  093%=      5-min Rain = 0
KPD1 221041Z 13007KT 01/M00 A2993 RMK A01 T00061004  RH  093%=      5-min Rain = 0
KPD1 221042Z 14008KT 01/M00 A2993 RMK A01 T00061004  RH  093%=      5-min Rain = 0
KPD1 221043Z 15007KT 01/M00 A2993 RMK A01 T00061004  RH  093%=      5-min Rain = 0
KPD1 221044Z 13007KT 01/M00 A2993 RMK A01 T00051004  RH  093%=      5-min Rain = 0
KPD1 221045Z 13008KT 01/M00 A2993 RMK A01 T00061004  RH  093%=      5-min Rain = 0
KPD1 221046Z 13008KT 01/M00 A2992 RMK A01 T00061004  RH  093%=      5-min Rain = 0
KPD1 221047Z 13009KT 01/M00 A2992 RMK A01 T00051004  RH  093%=      5-min Rain = 0
KPD1 221048Z 13008KT 01/M00 A2992 RMK A01 T00051004  RH  093%=      5-min Rain = 0
KPD1 221049Z 13007KT 01/M00 A2992 RMK A01 T00051004  RH  093%=      5-min Rain = 0
KPD1 221050Z 13008KT 01/M00 A2992 RMK A01 T00061004  RH  093%=      5-min Rain = 0
KPD1 221051Z 13008KT 01/M00 A2992 RMK A01 T00051004  RH  093%=      5-min Rain = 0
KPD1 221052Z 14007KT 01/M00 A2992 RMK A01 T00061004  RH  093%=      5-min Rain = 0
KPD1 221053Z 13008KT 01/M00 A2992 RMK A01 T00061004  RH  093%=      5-min Rain = 0
KPD1 221054Z 13008KT 01/M00 A2992 RMK A01 T00051004  RH  094%=      5-min Rain = 0
KPD1 221055Z 13010KT 01/M00 A2992 RMK A01 T00051004  RH  094%=      5-min Rain = 0
KPD1 221056Z 13009KT 01/M00 A2992 RMK A01 T00051004  RH  094%=      5-min Rain = 0
KPD1 221057Z 13008KT 01/M00 A2992 RMK A01 T00061003  RH  094%=      5-min Rain = 0
KPD1 221058Z 13006KT 01/M00 A2992 RMK A01 T00061003  RH  094%=      5-min Rain = 0
KPD1 221059Z 14008KT 01/M00 A2992 RMK A01 T00061003  RH  094%=      5-min Rain = 0
KPD1 221100Z 14007KT 01/M00 A2992 RMK A01 T00051004  RH  094%=      5-min Rain = 0
KPD1 221101Z 14008KT 01/M00 A2992 RMK A01 T00051004  RH  094%=      5-min Rain = 0
KPD1 221102Z 14008KT 01/M00 A2992 RMK A01 T00051004  RH  094%=      5-min Rain = 0
KPD1 221103Z 14009KT 01/M00 A2992 RMK A01 T00051004  RH  094%=      5-min Rain = 0
KPD1 221104Z 14009KT 01/M00 A2992 RMK A01 T00051004  RH  094%=      5-min Rain = 0
KPD1 221105Z 13008KT 01/M00 A2992 RMK A01 T00051003  RH  094%=      5-min Rain = 0
KPD1 221106Z 14009KT 01/M00 A2992 RMK A01 T00051004  RH  094%=      5-min Rain = 0
KPD1 221107Z 13007KT 01/M00 A2992 RMK A01 T00051004  RH  094%=      5-min Rain = 0
KPD1 221108Z 14007KT 01/M00 A2992 RMK A01 T00051004  RH  094%=      5-min Rain = 0
KPD1 221109Z 14010KT 01/M00 A2992 RMK A01 T00051003  RH  094%=      5-min Rain = 0
KPD1 221110Z 13008KT 01/M00 A2992 RMK A01 T00051004  RH  094%=      5-min Rain = 0
KPD1 221111Z 14008KT 01/M00 A2992 RMK A01 T00051003  RH  094%=      5-min Rain = 0
KPD1 221112Z 14008KT 00/M00 A2992 RMK A01 T00041004  RH  094%=      5-min Rain = 0
KPD1 221113Z 14006KT 01/M00 A2992 RMK A01 T00051003  RH  094%=      5-min Rain = 0
KPD1 221114Z 13008KT 01/M00 A2992 RMK A01 T00051003  RH  094%=      5-min Rain = 0
KPD1 221115Z 14010KT 01/M00 A2992 RMK A01 T00051003  RH  094%=      5-min Rain = 0
KPD1 221116Z 13010KT 01/M00 A2992 RMK A01 T00051003  RH  094%=      5-min Rain = 0
KPD1 221117Z 13008KT 01/M00 A2992 RMK A01 T00051003  RH  094%=      5-min Rain = 0
KPD1 221118Z 14008KT 01/M00 A2992 RMK A01 T00051003  RH  094%=      5-min Rain = 0
KPD1 221119Z 14009KT 01/M00 A2992 RMK A01 T00051003  RH  094%=      5-min Rain = 0
KPD1 221120Z 14008G13KT 01/M00 A2992 RMK A01 T00051003  RH  094%=      5-min Rain = 0
KPD1 221121Z 13009KT 01/M00 A2992 RMK A01 T00051003  RH  094%=      5-min Rain = 0
KPD1 221122Z 14008KT 00/M00 A2992 RMK A01 T00041004  RH  094%=      5-min Rain = 0
KPD1 221123Z 14006KT 00/M00 A2992 RMK A01 T00041003  RH  094%=      5-min Rain = 0
KPD1 221124Z 13007KT 00/M00 A2992 RMK A01 T00041003  RH  095%=      5-min Rain = 0
KPD1 221125Z 13008KT 01/M00 A2992 RMK A01 T00051003  RH  094%=      5-min Rain = 0
KPD1 221126Z 14007KT 00/M00 A2992 RMK A01 T00041004  RH  094%=      5-min Rain = 0
KPD1 221127Z 13006KT 01/M00 A2992 RMK A01 T00051003  RH  095%=      5-min Rain = 0
KPD1 221128Z 13006KT 01/M00 A2992 RMK A01 T00051003  RH  095%=      5-min Rain = 0
KPD1 221129Z 14009KT 01/M00 A2992 RMK A01 T00051003  RH  095%=      5-min Rain = 0
KPD1 221130Z 14006KT 01/M00 A2992 RMK A01 T00051003  RH  095%=      5-min Rain = 0
KPD1 221131Z 13008KT 01/M00 A2992 RMK A01 T00051003  RH  095%=      5-min Rain = 0
KPD1 221132Z 13007KT 00/M00 A2992 RMK A01 T00041003  RH  095%=      5-min Rain = 0
KPD1 221133Z 14008KT 00/M00 A2992 RMK A01 T00041003  RH  095%=      5-min Rain = 0
KPD1 221134Z 13008KT 01/M00 A2992 RMK A01 T00051003  RH  095%=      5-min Rain = 0
KPD1 221135Z 13008KT 00/M00 A2992 RMK A01 T00041003  RH  095%=      5-min Rain = 0
KPD1 221136Z 13007KT 01/M00 A2991 RMK A01 T00051003  RH  095%=      5-min Rain = 0
KPD1 221137Z 13006KT 01/M00 A2991 RMK A01 T00051003  RH  095%=      5-min Rain = 0
KPD1 221138Z 14005KT 01/M00 A2991 RMK A01 T00051003  RH  095%=      5-min Rain = 0
KPD1 221139Z 13006KT 00/M00 A2991 RMK A01 T00041003  RH  095%=      5-min Rain = 0
KPD1 221140Z 14009KT 00/M00 A2991 RMK A01 T00041003  RH  095%=      5-min Rain = 0
KPD1 221141Z 13007KT 00/M00 A2991 RMK A01 T00041003  RH  095%=      5-min Rain = 0
KPD1 221142Z 13009KT 00/M00 A2991 RMK A01 T00041003  RH  095%=      5-min Rain = 0
KPD1 221143Z 14007KT 01/M00 A2991 RMK A01 T00051003  RH  095%=      5-min Rain = 0
KPD1 221144Z 14007KT 01/M00 A2991 RMK A01 T00051003  RH  095%=      5-min Rain = 0
KPD1 221145Z 14007KT 00/M00 A2991 RMK A01 T00041003  RH  095%=      5-min Rain = 0
KPD1 221146Z 14007KT 00/M00 A2991 RMK A01 T00041003  RH  095%=      5-min Rain = 0
KPD1 221147Z 14009KT 00/M00 A2991 RMK A01 T00041003  RH  095%=      5-min Rain = 0
KPD1 221148Z 13009KT 00/M00 A2991 RMK A01 T00041003  RH  095%=      5-min Rain = 0
KPD1 221149Z 13008KT 00/M00 A2991 RMK A01 T00041003  RH  095%=      5-min Rain = 0
KPD1 221150Z 12010KT 00/M00 A2991 RMK A01 T00041003  RH  095%=      5-min Rain = 0
KPD1 221151Z 14008KT 00/M00 A2991 RMK A01 T00041003  RH  095%=      5-min Rain = 0
KPD1 221152Z 13008KT 01/M00 A2991 RMK A01 T00051002  RH  095%=      5-min Rain = 0
KPD1 221153Z 14009KT 00/M00 A2991 RMK A01 T00041003  RH  095%=      5-min Rain = 0
KPD1 221154Z 14009KT 00/M00 A2991 RMK A01 T00041003  RH  095%=      5-min Rain = 0
KPD1 221155Z 13010KT 00/M00 A2991 RMK A01 T00041003  RH  095%=      5-min Rain = 0
KPD1 221156Z 14007KT 01/M00 A2991 RMK A01 T00051002  RH  095%=      5-min Rain = 0
KPD1 221157Z 14008KT 01/M00 A2991 RMK A01 T00051002  RH  095%=      5-min Rain = 0
KPD1 221158Z 14008KT 00/M00 A2991 RMK A01 T00041002  RH  095%=      5-min Rain = 0
KPD1 221159Z 13009KT 01/M00 A2991 RMK A01 T00051002  RH  095%=      5-min Rain = 0
KPD1 221200Z 14011KT 00/M00 A2991 RMK A01 T00041003  RH  095%=      5-min Rain = 0
KPD1 221201Z 14009KT 01/M00 A2991 RMK A01 T00051002  RH  095%=      5-min Rain = 0
KPD1 221202Z 15010KT 00/M00 A2991 RMK A01 T00041003  RH  095%=      5-min Rain = 0
KPD1 221203Z 13009KT 01/M00 A2991 RMK A01 T00051002  RH  095%=      5-min Rain = 0
KPD1 221204Z 14008KT 00/M00 A2991 RMK A01 T00041002  RH  095%=      5-min Rain = 0
KPD1 221205Z 14006KT 01/M00 A2991 RMK A01 T00051002  RH  095%=      5-min Rain = 0
KPD1 221206Z 14006KT 00/M00 A2991 RMK A01 T00041003  RH  095%=      5-min Rain = 0
KPD1 221207Z 14007KT 01/M00 A2991 RMK A01 T00051002  RH  095%=      5-min Rain = 0
KPD1 221208Z 15008KT 01/M00 A2991 RMK A01 T00051002  RH  095%=      5-min Rain = 0
KPD1 221209Z 14007KT 01/M00 A2991 RMK A01 T00051002  RH  095%=      5-min Rain = 0
KPD1 221210Z 14008KT 01/M00 A2991 RMK A01 T00051002  RH  095%=      5-min Rain = 0
KPD1 221211Z 14007KT 01/M00 A2991 RMK A01 T00051002  RH  095%=      5-min Rain = 0
KPD1 221212Z 14007KT 01/M00 A2991 RMK A01 T00051002  RH  095%=      5-min Rain = 0
KPD1 221213Z 13006KT 01/M00 A2991 RMK A01 T00051001  RH  095%=      5-min Rain = 0
KPD1 221214Z 14006KT 01/M00 A2991 RMK A01 T00051002  RH  095%=      5-min Rain = 0
KPD1 221215Z 14008KT 01/M00 A2991 RMK A01 T00051002  RH  095%=      5-min Rain = 0
KPD1 221216Z 15008KT 01/M00 A2991 RMK A01 T00051002  RH  095%=      5-min Rain = 0
KPD1 221217Z 14009KT 01/M00 A2991 RMK A01 T00051001  RH  095%=      5-min Rain = 0
KPD1 221218Z 14007KT 01/M00 A2991 RMK A01 T00051002  RH  095%=      5-min Rain = 0
KPD1 221219Z 13007KT 01/M00 A2991 RMK A01 T00051001  RH  095%=      5-min Rain = 0
KPD1 221220Z 14007KT 01/M00 A2991 RMK A01 T00051001  RH  095%=      5-min Rain = 0
KPD1 221221Z 14007KT 01/M00 A2991 RMK A01 T00051002  RH  095%=      5-min Rain = 0
KPD1 221222Z 14006KT 01/M00 A2991 RMK A01 T00051002  RH  095%=      5-min Rain = 0
KPD1 221223Z 14007KT 01/M00 A2991 RMK A01 T00051002  RH  095%=      5-min Rain = 0
KPD1 221224Z 14007KT 01/M00 A2991 RMK A01 T00051002  RH  095%=      5-min Rain = 0
KPD1 221225Z 14009KT 01/M00 A2992 RMK A01 T00051002  RH  095%=      5-min Rain = 0
KPD1 221226Z 14007KT 01/M00 A2992 RMK A01 T00051001  RH  095%=      5-min Rain = 0
KPD1 221227Z 15007KT 01/M00 A2992 RMK A01 T00051002  RH  095%=      5-min Rain = 0
KPD1 221228Z 14007KT 01/M00 A2992 RMK A01 T00051002  RH  095%=      5-min Rain = 0
KPD1 221229Z 15007KT 01/M00 A2992 RMK A01 T00051001  RH  095%=      5-min Rain = 0
KPD1 221230Z 14005KT 01/M00 A2992 RMK A01 T00051002  RH  096%=      5-min Rain = 0
KPD1 221231Z 14005KT 01/M00 A2992 RMK A01 T00051001  RH  096%=      5-min Rain = 0
KPD1 221232Z 12007KT 01/M00 A2992 RMK A01 T00051001  RH  096%=      5-min Rain = 0
KPD1 221233Z 13006KT 01/00 A2992 RMK A01 T000600-0  RH  096%=      5-min Rain = 0
KPD1 221234Z 15006KT 01/M00 A2992 RMK A01 T00051001  RH  096%=      5-min Rain = 0
KPD1 221235Z 14005KT 01/M00 A2992 RMK A01 T00061001  RH  096%=      5-min Rain = 0
KPD1 221236Z 14006KT 01/M00 A2992 RMK A01 T00061001  RH  096%=      5-min Rain = 0
KPD1 221237Z 13004KT 01/M00 A2992 RMK A01 T00051001  RH  096%=      5-min Rain = 0
KPD1 221238Z 14006KT 01/00 A2992 RMK A01 T000600-0  RH  096%=      5-min Rain = 0
KPD1 221239Z 13008KT 01/M00 A2992 RMK A01 T00051001  RH  096%=      5-min Rain = 0
KPD1 221240Z 14007KT 01/M00 A2993 RMK A01 T00061001  RH  096%=      5-min Rain = 0
KPD1 221241Z 14005KT 01/M00 A2993 RMK A01 T00051001  RH  096%=      5-min Rain = 0
KPD1 221242Z 14004KT 01/M00 A2993 RMK A01 T00051001  RH  096%=      5-min Rain = 0
KPD1 221243Z 13005KT 01/M00 A2993 RMK A01 T00061001  RH  096%=      5-min Rain = 0
KPD1 221244Z 13003KT 01/M00 A2993 RMK A01 T00051001  RH  096%=      5-min Rain = 0
KPD1 221245Z 14004KT 01/M00 A2993 RMK A01 T00061001  RH  096%=      5-min Rain = 0
KPD1 221246Z 15004KT 01/00 A2993 RMK A01 T000600-0  RH  096%=      5-min Rain = 0
KPD1 221247Z 16006KT 01/M00 A2993 RMK A01 T00061001  RH  096%=      5-min Rain = 0
KPD1 221248Z 15006KT 01/00 A2993 RMK A01 T000600-0  RH  096%=      5-min Rain = 0
KPD1 221249Z 15006KT 01/M00 A2993 RMK A01 T00061001  RH  096%=      5-min Rain = 0
KPD1 221250Z 14005KT 01/00 A2993 RMK A01 T000600-0  RH  096%=      5-min Rain = 0
KPD1 221251Z 14006KT 01/M00 A2993 RMK A01 T00061001  RH  096%=      5-min Rain = 0
KPD1 221252Z 14006KT 01/00 A2993 RMK A01 T000600-0  RH  096%=      5-min Rain = 0
KPD1 221253Z 14007KT 01/00 A2993 RMK A01 T000600-0  RH  096%=      5-min Rain = 0
KPD1 221254Z 14008KT 01/00 A2993 RMK A01 T000600-0  RH  096%=      5-min Rain = 0
KPD1 221255Z 14007KT 01/00 A2993 RMK A01 T000600-0  RH  096%=      5-min Rain = 0
KPD1 221256Z 14007KT 01/00 A2993 RMK A01 T00060000  RH  096%=      5-min Rain = 0
KPD1 221257Z 14008KT 01/00 A2993 RMK A01 T000600-0  RH  096%=      5-min Rain = 0
KPD1 221258Z 14009KT 01/00 A2993 RMK A01 T00060000  RH  096%=      5-min Rain = 0
KPD1 221259Z 15009KT 01/M00 A2993 RMK A01 T00061001  RH  096%=      5-min Rain = 0
KPD1 221300Z 14007KT 01/M00 A2993 RMK A01 T00051001  RH  096%=      5-min Rain = 0
KPD1 221301Z 14006KT 01/M00 A2993 RMK A01 T00051001  RH  096%=      5-min Rain = 0
KPD1 221302Z 13006KT 01/M00 A2993 RMK A01 T00051001  RH  096%=      5-min Rain = 0
KPD1 221303Z 13009KT 01/M00 A2993 RMK A01 T00051001  RH  096%=      5-min Rain = 0
KPD1 221304Z 13005KT 01/M00 A2993 RMK A01 T00051001  RH  096%=      5-min Rain = 0
KPD1 221305Z 13007KT 01/00 A2993 RMK A01 T000600-0  RH  096%=      5-min Rain = 0
KPD1 221306Z 13009KT 01/M00 A2993 RMK A01 T00061001  RH  096%=      5-min Rain = 0
KPD1 221307Z 13007KT 01/M00 A2992 RMK A01 T00051001  RH  096%=      5-min Rain = 0
KPD1 221308Z 12007KT 01/M00 A2992 RMK A01 T00051001  RH  096%=      5-min Rain = 0
KPD1 221309Z 13007KT 01/M00 A2992 RMK A01 T00051001  RH  096%=      5-min Rain = 0
KPD1 221310Z 13006KT 01/M00 A2992 RMK A01 T00051001  RH  096%=      5-min Rain = 0
KPD1 221311Z 13006KT 01/M00 A2992 RMK A01 T00051001  RH  096%=      5-min Rain = 0
KPD1 221312Z 13007KT 01/M00 A2993 RMK A01 T00051001  RH  096%=      5-min Rain = 0
KPD1 221313Z 14006KT 01/M00 A2992 RMK A01 T00061001  RH  096%=      5-min Rain = 0
KPD1 221314Z 14006KT 01/M00 A2992 RMK A01 T00051001  RH  096%=      5-min Rain = 0
KPD1 221315Z 13005KT 01/M00 A2992 RMK A01 T00061001  RH  096%=      5-min Rain = 0
KPD1 221316Z 13007KT 01/M00 A2993 RMK A01 T00051001  RH  096%=      5-min Rain = 0
KPD1 221317Z 13006KT 01/M00 A2993 RMK A01 T00051001  RH  096%=      5-min Rain = 0
KPD1 221318Z 13006KT 01/M00 A2993 RMK A01 T00051001  RH  096%=      5-min Rain = 0
KPD1 221319Z 14006KT 01/M00 A2993 RMK A01 T00061001  RH  096%=      5-min Rain = 0
KPD1 221320Z 13006KT 01/00 A2993 RMK A01 T000600-0  RH  096%=      5-min Rain = 0
KPD1 221321Z 12005KT 01/M00 A2993 RMK A01 T00051001  RH  096%=      5-min Rain = 0
KPD1 221322Z 13005KT 01/M00 A2993 RMK A01 T00051001  RH  096%=      5-min Rain = 0
KPD1 221323Z 13004KT 01/M00 A2993 RMK A01 T00051001  RH  096%=      5-min Rain = 0
KPD1 221324Z 13005KT 01/00 A2993 RMK A01 T000600-0  RH  096%=      5-min Rain = 0
KPD1 221325Z 12005KT 01/M00 A2993 RMK A01 T00061001  RH  096%=      5-min Rain = 0
KPD1 221326Z 13006KT 01/00 A2993 RMK A01 T000600-0  RH  096%=      5-min Rain = 0
KPD1 221327Z 12005KT 01/00 A2993 RMK A01 T000600-0  RH  096%=      5-min Rain = 0
KPD1 221328Z 13004KT 01/00 A2993 RMK A01 T00060000  RH  096%=      5-min Rain = 0
KPD1 221329Z 13005KT 01/00 A2993 RMK A01 T000600-0  RH  096%=      5-min Rain = 0
KPD1 221330Z 13005KT 01/00 A2993 RMK A01 T000600-0  RH  096%=      5-min Rain = 0
KPD1 221331Z 11004KT 01/00 A2993 RMK A01 T00060000  RH  096%=      5-min Rain = 0
KPD1 221332Z 10004KT 01/00 A2993 RMK A01 T00060000  RH  096%=      5-min Rain = 0
KPD1 221333Z 12003KT 01/00 A2993 RMK A01 T00060000  RH  096%=      5-min Rain = 0
KPD1 221334Z 13002KT 01/00 A2993 RMK A01 T00060000  RH  096%=      5-min Rain = 0
KPD1 221335Z 14004KT 01/00 A2993 RMK A01 T00060000  RH  096%=      5-min Rain = 0
KPD1 221336Z 13004KT 01/00 A2993 RMK A01 T00070001  RH  096%=      5-min Rain = 0
KPD1 221337Z 13005KT 01/00 A2993 RMK A01 T00070001  RH  096%=      5-min Rain = 0
KPD1 221338Z 14005KT 01/00 A2993 RMK A01 T00070001  RH  096%=      5-min Rain = 0
KPD1 221339Z 14006KT 01/00 A2993 RMK A01 T00070001  RH  096%=      5-min Rain = 0
KPD1 221340Z 14006KT 01/00 A2993 RMK A01 T00070001  RH  096%=      5-min Rain = 0
KPD1 221341Z 14005KT 01/00 A2993 RMK A01 T00070001  RH  096%=      5-min Rain = 0
KPD1 221342Z 14005KT 01/00 A2993 RMK A01 T00060001  RH  096%=      5-min Rain = 0
KPD1 221343Z 14006KT 01/00 A2993 RMK A01 T00060001  RH  096%=      5-min Rain = 0
KPD1 221344Z 14007KT 01/00 A2994 RMK A01 T00070001  RH  096%=      5-min Rain = 0
KPD1 221345Z 15009KT 01/00 A2994 RMK A01 T00060001  RH  096%=      5-min Rain = 0
KPD1 221346Z 14010KT 01/00 A2994 RMK A01 T00060001  RH  096%=      5-min Rain = 0
KPD1 221347Z 13010KT 01/00 A2994 RMK A01 T00070001  RH  096%=      5-min Rain = 0
KPD1 221348Z 14007KT 01/00 A2994 RMK A01 T00070002  RH  096%=      5-min Rain = 0
KPD1 221349Z 13008KT 01/00 A2994 RMK A01 T00060001  RH  096%=      5-min Rain = 0
KPD1 221350Z 13008KT 01/00 A2994 RMK A01 T00070001  RH  096%=      5-min Rain = 0
KPD1 221351Z 13009KT 01/00 A2994 RMK A01 T00070001  RH  096%=      5-min Rain = 0
KPD1 221352Z 13008KT 01/00 A2994 RMK A01 T00070002  RH  096%=      5-min Rain = 0
KPD1 221353Z 15009G14KT 01/00 A2994 RMK A01 T00070001  RH  096%=      5-min Rain = 0
KPD1 221354Z 14012KT 01/00 A2994 RMK A01 T00070001  RH  096%=      5-min Rain = 0
KPD1 221355Z 13012KT 01/00 A2993 RMK A01 T00070001  RH  096%=      5-min Rain = 0
KPD1 221356Z 13012KT 01/00 A2993 RMK A01 T00070001  RH  096%=      5-min Rain = 0
KPD1 221357Z 13011KT 01/00 A2993 RMK A01 T00070001  RH  096%=      5-min Rain = 0
KPD1 221358Z 14010KT 01/00 A2993 RMK A01 T00070001  RH  096%=      5-min Rain = 0
KPD1 221359Z 14011KT 01/00 A2994 RMK A01 T00060001  RH  096%=      5-min Rain = 0
KPD1 221400Z 14010KT 01/00 A2994 RMK A01 T00060001  RH  096%=      5-min Rain = 0
KPD1 221401Z 14007KT 01/00 A2994 RMK A01 T00070001  RH  096%=      5-min Rain = 0
KPD1 221402Z 14010KT 01/00 A2994 RMK A01 T00070001  RH  096%=      5-min Rain = 0
KPD1 221403Z 15011KT 01/00 A2995 RMK A01 T00070001  RH  096%=      5-min Rain = 0
KPD1 221404Z 15009KT 01/00 A2995 RMK A01 T00070001  RH  096%=      5-min Rain = 0
KPD1 221405Z 16009KT 01/00 A2995 RMK A01 T00070001  RH  096%=      5-min Rain = 0
KPD1 221406Z 16009KT 01/00 A2995 RMK A01 T00070001  RH  096%=      5-min Rain = 0
KPD1 221407Z 15010KT 01/00 A2995 RMK A01 T00070001  RH  096%=      5-min Rain = 0
KPD1 221408Z 15009KT 01/00 A2995 RMK A01 T00070001  RH  096%=      5-min Rain = 0
KPD1 221409Z 14009KT 01/00 A2995 RMK A01 T00070001  RH  096%=      5-min Rain = 0
KPD1 221410Z 14008KT 01/00 A2995 RMK A01 T00060001  RH  096%=      5-min Rain = 0
KPD1 221411Z 14006KT 01/00 A2995 RMK A01 T00070001  RH  096%=      5-min Rain = 0
KPD1 221412Z 13008KT 01/00 A2996 RMK A01 T00070001  RH  096%=      5-min Rain = 0
KPD1 221413Z 14008KT 01/00 A2996 RMK A01 T00070001  RH  096%=      5-min Rain = 0
KPD1 221414Z 15007KT 01/00 A2996 RMK A01 T00070002  RH  096%=      5-min Rain = 0
KPD1 221415Z 14006KT 01/00 A2996 RMK A01 T00070001  RH  096%=      5-min Rain = 0
KPD1 221416Z 14006KT 01/00 A2996 RMK A01 T00070002  RH  096%=      5-min Rain = 0
KPD1 221417Z 15008KT 01/00 A2996 RMK A01 T00070002  RH  096%=      5-min Rain = 0
KPD1 221418Z 14009KT 01/00 A2996 RMK A01 T00070001  RH  096%=      5-min Rain = 0
KPD1 221419Z 14005KT 01/00 A2996 RMK A01 T00070001  RH  096%=      5-min Rain = 0
KPD1 221420Z 14007KT 01/00 A2996 RMK A01 T00070001  RH  096%=      5-min Rain = 0
KPD1 221421Z 15007KT 01/00 A2996 RMK A01 T00070002  RH  096%=      5-min Rain = 0
KPD1 221422Z 14009KT 01/00 A2996 RMK A01 T00070001  RH  096%=      5-min Rain = 0
KPD1 221423Z 13007KT 01/00 A2996 RMK A01 T00080002  RH  096%=      5-min Rain = 0
KPD1 221424Z 14009KT 01/00 A2996 RMK A01 T00070001  RH  096%=      5-min Rain = 0
KPD1 221425Z 14009KT 01/00 A2997 RMK A01 T00070002  RH  096%=      5-min Rain = 0
KPD1 221426Z 13006KT 01/00 A2997 RMK A01 T00070001  RH  096%=      5-min Rain = 0
KPD1 221427Z 14008KT 01/00 A2997 RMK A01 T00070002  RH  096%=      5-min Rain = 0
KPD1 221428Z 14008KT 01/00 A2997 RMK A01 T00070002  RH  096%=      5-min Rain = 0
KPD1 221429Z 13008KT 01/00 A2997 RMK A01 T00070001  RH  096%=      5-min Rain = 0
KPD1 221430Z 13006KT 01/00 A2997 RMK A01 T00070002  RH  096%=      5-min Rain = 0
KPD1 221431Z 13007KT 01/00 A2997 RMK A01 T00070001  RH  096%=      5-min Rain = 0
KPD1 221432Z 14006KT 01/00 A2997 RMK A01 T00070002  RH  096%=      5-min Rain = 0
KPD1 221433Z 14007KT 01/00 A2997 RMK A01 T00080002  RH  096%=      5-min Rain = 0
KPD1 221434Z 13009KT 01/00 A2997 RMK A01 T00070002  RH  096%=      5-min Rain = 0
KPD1 221435Z 14006KT 01/00 A2997 RMK A01 T00080002  RH  096%=      5-min Rain = 0
KPD1 221436Z 14006KT 01/00 A2997 RMK A01 T00080002  RH  096%=      5-min Rain = 0
KPD1 221437Z 14008KT 01/00 A2997 RMK A01 T00080002  RH  096%=      5-min Rain = 0
KPD1 221438Z 14009KT 01/00 A2997 RMK A01 T00080003  RH  096%=      5-min Rain = 0
KPD1 221439Z 14008KT 01/00 A2997 RMK A01 T00080002  RH  096%=      5-min Rain = 0
KPD1 221440Z 14008KT 01/00 A2997 RMK A01 T00080003  RH  096%=      5-min Rain = 0
KPD1 221441Z 14007KT 01/00 A2997 RMK A01 T00080003  RH  096%=      5-min Rain = 0
KPD1 221442Z 14007KT 01/00 A2997 RMK A01 T00080002  RH  096%=      5-min Rain = 0
KPD1 221443Z 14007KT 01/00 A2998 RMK A01 T00080002  RH  096%=      5-min Rain = 0
KPD1 221444Z 14007KT 01/00 A2997 RMK A01 T00080002  RH  096%=      5-min Rain = 0
KPD1 221445Z 14008KT 01/00 A2997 RMK A01 T00080002  RH  096%=      5-min Rain = 0
KPD1 221446Z 15007KT 01/00 A2997 RMK A01 T00080003  RH  096%=      5-min Rain = 0
KPD1 221447Z 14008KT 01/00 A2998 RMK A01 T00080002  RH  096%=      5-min Rain = 0
KPD1 221448Z 14009KT 01/00 A2998 RMK A01 T00080002  RH  096%=      5-min Rain = 0
KPD1 221449Z 15007KT 01/00 A2998 RMK A01 T00080003  RH  096%=      5-min Rain = 0
KPD1 221450Z 15007KT 01/00 A2998 RMK A01 T00080002  RH  096%=      5-min Rain = 0
KPD1 221451Z 16007KT 01/00 A2998 RMK A01 T00080003  RH  096%=      5-min Rain = 0
KPD1 221452Z 14006KT 01/00 A2998 RMK A01 T00080003  RH  096%=      5-min Rain = 0
KPD1 221453Z 15008KT 01/00 A2998 RMK A01 T00080003  RH  096%=      5-min Rain = 0
KPD1 221454Z 15007KT 01/00 A2998 RMK A01 T00080002  RH  096%=      5-min Rain = 0
KPD1 221455Z 15007KT 01/00 A2998 RMK A01 T00090003  RH  096%=      5-min Rain = 0
KPD1 221456Z 16005KT 01/00 A2998 RMK A01 T00080003  RH  096%=      5-min Rain = 0
KPD1 221457Z 15006KT 01/00 A2998 RMK A01 T00080002  RH  096%=      5-min Rain = 0
KPD1 221458Z 15006KT 01/00 A2998 RMK A01 T00080002  RH  096%=      5-min Rain = 0
KPD1 221459Z 15007KT 01/00 A2998 RMK A01 T00080002  RH  096%=      5-min Rain = 0
KPD1 221500Z 15008KT 01/00 A2998 RMK A01 T00080003  RH  096%=      5-min Rain = 0
KPD1 221501Z 15008KT 01/00 A2998 RMK A01 T00080003  RH  096%=      5-min Rain = 0
KPD1 221502Z 16008KT 01/00 A2998 RMK A01 T00080002  RH  096%=      5-min Rain = 0
KPD1 221503Z 15008KT 01/00 A2998 RMK A01 T00080002  RH  096%=      5-min Rain = 0
KPD1 221504Z 15009KT 01/00 A2998 RMK A01 T00080003  RH  096%=      5-min Rain = 0
KPD1 221505Z 14009KT 01/00 A2998 RMK A01 T00090003  RH  096%=      5-min Rain = 0
KPD1 221506Z 16008KT 01/00 A2998 RMK A01 T00090003  RH  096%=      5-min Rain = 0
KPD1 221507Z 15008KT 01/00 A2998 RMK A01 T00090003  RH  096%=      5-min Rain = 0
KPD1 221508Z 15008G13KT 01/00 A2998 RMK A01 T00090003  RH  096%=      5-min Rain = 0
KPD1 221509Z 15008KT 01/00 A2998 RMK A01 T00090003  RH  096%=      5-min Rain = 0
KPD1 221510Z 16009KT 01/00 A2998 RMK A01 T00080003  RH  096%=      5-min Rain = 0
KPD1 221511Z 15009KT 01/00 A2998 RMK A01 T00090003  RH  096%=      5-min Rain = 0
KPD1 221512Z 15009KT 01/00 A2998 RMK A01 T00080003  RH  096%=      5-min Rain = 0
KPD1 221513Z 15008KT 01/00 A2998 RMK A01 T00090003  RH  096%=      5-min Rain = 0
KPD1 221514Z 15008KT 01/00 A2998 RMK A01 T00090004  RH  096%=      5-min Rain = 0
KPD1 221515Z 14007KT 01/00 A2998 RMK A01 T00090003  RH  096%=      5-min Rain = 0
KPD1 221516Z 15006KT 01/00 A2998 RMK A01 T00090004  RH  096%=      5-min Rain = 0
KPD1 221517Z 15006KT 01/00 A2998 RMK A01 T00100004  RH  096%=      5-min Rain = 0
KPD1 221518Z 14007KT 01/00 A2998 RMK A01 T00100004  RH  096%=      5-min Rain = 0
KPD1 221519Z 15007KT 01/00 A2998 RMK A01 T00100004  RH  096%=      5-min Rain = 0
KPD1 221520Z 15009KT 01/00 A2998 RMK A01 T00100004  RH  096%=      5-min Rain = 0
KPD1 221521Z 14008KT 01/01 A2998 RMK A01 T00100005  RH  096%=      5-min Rain = 0
KPD1 221522Z 15007KT 01/00 A2998 RMK A01 T00100004  RH  096%=      5-min Rain = 0
KPD1 221523Z 15006KT 01/00 A2998 RMK A01 T00100004  RH  096%=      5-min Rain = 0
KPD1 221524Z 15006KT 01/00 A2999 RMK A01 T00100004  RH  096%=      5-min Rain = 0
KPD1 221525Z 14005KT 01/01 A2999 RMK A01 T00100005  RH  096%=      5-min Rain = 0
KPD1 221526Z 15005KT 01/00 A2999 RMK A01 T00100004  RH  096%=      5-min Rain = 0
KPD1 221527Z 14006KT 01/01 A2999 RMK A01 T00100005  RH  096%=      5-min Rain = 0
KPD1 221528Z 14006KT 01/01 A2999 RMK A01 T00110006  RH  096%=      5-min Rain = 0
KPD1 221529Z 14006KT 01/01 A2998 RMK A01 T00120006  RH  096%=      5-min Rain = 0
KPD1 221530Z 14006KT 01/01 A2998 RMK A01 T00110006  RH  096%=      5-min Rain = 0
KPD1 221531Z 14005KT 01/01 A2998 RMK A01 T00110006  RH  096%=      5-min Rain = 0
KPD1 221532Z 14006KT 01/01 A2998 RMK A01 T00110006  RH  096%=      5-min Rain = 0
KPD1 221533Z 14007KT 01/01 A2999 RMK A01 T00120006  RH  096%=      5-min Rain = 0
KPD1 221534Z 14006KT 01/01 A2999 RMK A01 T00110006  RH  096%=      5-min Rain = 0
KPD1 221535Z 14007KT 01/01 A2999 RMK A01 T00120006  RH  096%=      5-min Rain = 0
KPD1 221536Z 14005KT 01/01 A2999 RMK A01 T00120006  RH  096%=      5-min Rain = 0
KPD1 221537Z 14006KT 01/01 A2999 RMK A01 T00120006  RH  096%=      5-min Rain = 0
KPD1 221538Z 14006KT 01/01 A2999 RMK A01 T00120006  RH  096%=      5-min Rain = 0
KPD1 221539Z 15005KT 01/01 A2999 RMK A01 T00120007  RH  096%=      5-min Rain = 0
KPD1 221540Z 15006KT 01/01 A2999 RMK A01 T00120007  RH  096%=      5-min Rain = 0
KPD1 221541Z 14005KT 01/01 A2999 RMK A01 T00120007  RH  096%=      5-min Rain = 0
KPD1 221542Z 14004KT 01/01 A2999 RMK A01 T00120006  RH  096%=      5-min Rain = 0
KPD1 221543Z 13004KT 01/01 A2999 RMK A01 T00120007  RH  096%=      5-min Rain = 0
KPD1 221544Z 14005KT 01/01 A2999 RMK A01 T00130007  RH  096%=      5-min Rain = 0
KPD1 221545Z 14006KT 01/01 A2999 RMK A01 T00130008  RH  096%=      5-min Rain = 0
KPD1 221546Z 15005KT 01/01 A2999 RMK A01 T00130008  RH  096%=      5-min Rain = 0
KPD1 221547Z 14007KT 01/01 A2999 RMK A01 T00130007  RH  096%=      5-min Rain = 0
KPD1 221548Z 14007KT 01/01 A2999 RMK A01 T00130008  RH  096%=      5-min Rain = 0
KPD1 221549Z 13006KT 01/01 A2999 RMK A01 T00130007  RH  096%=      5-min Rain = 0
KPD1 221550Z 14006KT 01/01 A2999 RMK A01 T00130008  RH  096%=      5-min Rain = 0
KPD1 221551Z 14006KT 01/01 A2999 RMK A01 T00130007  RH  096%=      5-min Rain = 0
KPD1 221552Z 14006KT 01/01 A2999 RMK A01 T00130007  RH  096%=      5-min Rain = 0
KPD1 221553Z 14006KT 01/01 A2999 RMK A01 T00130008  RH  096%=      5-min Rain = 0
KPD1 221554Z 14006KT 01/01 A2999 RMK A01 T00140008  RH  096%=      5-min Rain = 0
KPD1 221555Z 14006KT 01/01 A2999 RMK A01 T00140008  RH  096%=      5-min Rain = 0
KPD1 221556Z 14006KT 01/01 A2999 RMK A01 T00140009  RH  096%=      5-min Rain = 0
KPD1 221557Z 14005KT 01/01 A2999 RMK A01 T00140009  RH  096%=      5-min Rain = 0
KPD1 221558Z 15007KT 01/01 A2999 RMK A01 T00140009  RH  096%=      5-min Rain = 0
KPD1 221559Z 13006KT 01/01 A2999 RMK A01 T00140009  RH  096%=      5-min Rain = 0
KPD1 221600Z 13005KT 01/01 A2999 RMK A01 T00140009  RH  096%=      5-min Rain = 0
KPD1 221601Z 13007KT 02/01 A2999 RMK A01 T00150009  RH  096%=      5-min Rain = 0
KPD1 221602Z 13005KT 02/01 A2999 RMK A01 T00150009  RH  096%=      5-min Rain = 0
KPD1 221603Z 13005KT 02/01 A2999 RMK A01 T00150010  RH  096%=      5-min Rain = 0
KPD1 221604Z 13006KT 02/01 A2999 RMK A01 T00160011  RH  096%=      5-min Rain = 0
KPD1 221605Z 13007KT 02/01 A2999 RMK A01 T00160011  RH  096%=      5-min Rain = 0
KPD1 221606Z 13007KT 02/01 A2999 RMK A01 T00160010  RH  096%=      5-min Rain = 0
KPD1 221607Z 13006KT 02/01 A2998 RMK A01 T00150010  RH  096%=      5-min Rain = 0
KPD1 221608Z 14007KT 02/01 A2998 RMK A01 T00150010  RH  096%=      5-min Rain = 0
KPD1 221609Z 14006KT 02/01 A2998 RMK A01 T00160010  RH  096%=      5-min Rain = 0
KPD1 221610Z 13006KT 02/01 A2998 RMK A01 T00150010  RH  096%=      5-min Rain = 0
KPD1 221611Z 14006KT 02/01 A2998 RMK A01 T00150010  RH  096%=      5-min Rain = 0
KPD1 221612Z 14006KT 02/01 A2998 RMK A01 T00160011  RH  096%=      5-min Rain = 0
KPD1 221613Z 14006KT 02/01 A2998 RMK A01 T00170012  RH  096%=      5-min Rain = 0
KPD1 221614Z 14006KT 02/01 A2998 RMK A01 T00170012  RH  096%=      5-min Rain = 0
KPD1 221615Z 14005KT 02/01 A2998 RMK A01 T00180012  RH  096%=      5-min Rain = 0
KPD1 221616Z 14007KT 02/01 A2998 RMK A01 T00180012  RH  096%=      5-min Rain = 0
KPD1 221617Z 14008KT 02/01 A2998 RMK A01 T00180012  RH  096%=      5-min Rain = 0
KPD1 221618Z 14007KT 02/01 A2998 RMK A01 T00180012  RH  096%=      5-min Rain = 0
KPD1 221619Z 13006KT 02/01 A2998 RMK A01 T00170012  RH  096%=      5-min Rain = 0
KPD1 221620Z 13006KT 02/01 A2998 RMK A01 T00170012  RH  096%=      5-min Rain = 0
KPD1 221621Z 14007KT 02/01 A2998 RMK A01 T00170012  RH  096%=      5-min Rain = 0
KPD1 221622Z 14007KT 02/01 A2998 RMK A01 T00180012  RH  096%=      5-min Rain = 0
KPD1 221623Z 13007KT 02/01 A2998 RMK A01 T00180012  RH  096%=      5-min Rain = 0
KPD1 221624Z 14007KT 02/01 A2998 RMK A01 T00180012  RH  096%=      5-min Rain = 0
KPD1 221625Z 14006KT 02/01 A2998 RMK A01 T00180012  RH  096%=      5-min Rain = 0
KPD1 221626Z 14005KT 02/01 A2998 RMK A01 T00170012  RH  096%=      5-min Rain = 0
KPD1 221627Z 14006KT 02/01 A2998 RMK A01 T00190013  RH  096%=      5-min Rain = 0
KPD1 221628Z 14006KT 02/01 A2998 RMK A01 T00180013  RH  096%=      5-min Rain = 0
KPD1 221629Z 14006KT 02/01 A2998 RMK A01 T00190014  RH  096%=      5-min Rain = 0
KPD1 221630Z 14005KT 02/01 A2998 RMK A01 T00190013  RH  096%=      5-min Rain = 0
KPD1 221631Z 14006KT 02/01 A2998 RMK A01 T00190014  RH  096%=      5-min Rain = 0
KPD1 221632Z 15006KT 02/01 A2998 RMK A01 T00190014  RH  096%=      5-min Rain = 0
KPD1 221633Z 15007KT 02/01 A2997 RMK A01 T00200014  RH  096%=      5-min Rain = 0
KPD1 221634Z 15008KT 02/01 A2997 RMK A01 T00190014  RH  096%=      5-min Rain = 0
KPD1 221635Z 14006KT 02/01 A2997 RMK A01 T00190014  RH  096%=      5-min Rain = 0
KPD1 221636Z 15007KT 02/01 A2997 RMK A01 T00200014  RH  096%=      5-min Rain = 0
KPD1 221637Z 14006KT 02/01 A2997 RMK A01 T00200014  RH  096%=      5-min Rain = 0
KPD1 221638Z 14006KT 02/01 A2997 RMK A01 T00200014  RH  096%=      5-min Rain = 0
KPD1 221639Z 14007KT 02/02 A2997 RMK A01 T00210015  RH  096%=      5-min Rain = 0
KPD1 221640Z 14007KT 02/02 A2997 RMK A01 T00210015  RH  096%=      5-min Rain = 0
KPD1 221641Z 14006KT 02/02 A2997 RMK A01 T00200015  RH  096%=      5-min Rain = 0
KPD1 221642Z 14006KT 02/02 A2997 RMK A01 T00200015  RH  096%=      5-min Rain = 0
KPD1 221643Z 15006KT 02/02 A2997 RMK A01 T00200015  RH  096%=      5-min Rain = 0
KPD1 221644Z 15007KT 02/02 A2997 RMK A01 T00210015  RH  096%=      5-min Rain = 0
KPD1 221645Z 14007KT 02/02 A2997 RMK A01 T00210015  RH  096%=      5-min Rain = 0
KPD1 221646Z 14005KT 02/02 A2997 RMK A01 T00210016  RH  096%=      5-min Rain = 0
KPD1 221647Z 14007KT 02/02 A2997 RMK A01 T00220017  RH  096%=      5-min Rain = 0
KPD1 221648Z 14006KT 02/02 A2997 RMK A01 T00230018  RH  096%=      5-min Rain = 0
KPD1 221649Z 14007KT 02/02 A2997 RMK A01 T00220017  RH  096%=      5-min Rain = 0
KPD1 221650Z 14006KT 02/02 A2997 RMK A01 T00210015  RH  096%=      5-min Rain = 0
KPD1 221651Z 14005KT 02/02 A2997 RMK A01 T00210015  RH  096%=      5-min Rain = 0
KPD1 221652Z 13005KT 02/02 A2997 RMK A01 T00210015  RH  096%=      5-min Rain = 0
KPD1 221653Z 13005KT 02/02 A2997 RMK A01 T00210015  RH  096%=      5-min Rain = 0
KPD1 221654Z 14006KT 02/02 A2997 RMK A01 T00220017  RH  096%=      5-min Rain = 0
KPD1 221655Z 13005KT 02/02 A2997 RMK A01 T00220017  RH  096%=      5-min Rain = 0
KPD1 221656Z 14008KT 02/02 A2997 RMK A01 T00220017  RH  096%=      5-min Rain = 0
KPD1 221657Z 15006KT 02/02 A2997 RMK A01 T00230018  RH  096%=      5-min Rain = 0
KPD1 221658Z 15007KT 02/02 A2997 RMK A01 T00230018  RH  096%=      5-min Rain = 0
KPD1 221659Z 16007KT 02/02 A2997 RMK A01 T00220017  RH  096%=      5-min Rain = 0
KPD1 221700Z 15006KT 02/02 A2997 RMK A01 T00240018  RH  096%=      5-min Rain = 0
KPD1 221701Z 14005KT 02/02 A2996 RMK A01 T00240019  RH  096%=      5-min Rain = 0
KPD1 221702Z 14005KT 02/02 A2996 RMK A01 T00240018  RH  096%=      5-min Rain = 0
KPD1 221703Z 14006KT 02/02 A2996 RMK A01 T00240019  RH  096%=      5-min Rain = 0
KPD1 221704Z 14005KT 02/02 A2996 RMK A01 T00230018  RH  096%=      5-min Rain = 0
KPD1 221705Z 14006KT 02/02 A2996 RMK A01 T00240018  RH  096%=      5-min Rain = 0
KPD1 221706Z 14007KT 02/02 A2996 RMK A01 T00240019  RH  096%=      5-min Rain = 0
KPD1 221707Z 14008KT 02/02 A2996 RMK A01 T00240019  RH  096%=      5-min Rain = 0
KPD1 221708Z 14006KT 02/02 A2996 RMK A01 T00240018  RH  096%=      5-min Rain = 0
KPD1 221709Z 14007KT 02/02 A2996 RMK A01 T00240019  RH  096%=      5-min Rain = 0
KPD1 221710Z 15007KT 02/02 A2996 RMK A01 T00240018  RH  096%=      5-min Rain = 0
KPD1 221711Z 14006KT 02/02 A2996 RMK A01 T00240018  RH  096%=      5-min Rain = 0
KPD1 221712Z 14005KT 02/02 A2996 RMK A01 T00240019  RH  096%=      5-min Rain = 0
KPD1 221713Z 14006KT 03/02 A2996 RMK A01 T00250020  RH  096%=      5-min Rain = 0
KPD1 221714Z 15004KT 03/02 A2996 RMK A01 T00260020  RH  096%=      5-min Rain = 0
KPD1 221715Z 14004KT 03/02 A2996 RMK A01 T00260021  RH  096%=      5-min Rain = 0
KPD1 221716Z 14006KT 03/02 A2996 RMK A01 T00270022  RH  096%=      5-min Rain = 0
KPD1 221717Z 14006KT 03/02 A2996 RMK A01 T00270022  RH  096%=      5-min Rain = 0
KPD1 221718Z 14005KT 03/02 A2996 RMK A01 T00270022  RH  096%=      5-min Rain = 0
KPD1 221719Z 13006KT 03/02 A2996 RMK A01 T00260021  RH  096%=      5-min Rain = 0
KPD1 221720Z 12004KT 03/02 A2996 RMK A01 T00260021  RH  096%=      5-min Rain = 0
KPD1 221721Z 13002KT 03/02 A2996 RMK A01 T00260021  RH  096%=      5-min Rain = 0
KPD1 221722Z 13004KT 03/02 A2996 RMK A01 T00290023  RH  096%=      5-min Rain = 0
KPD1 221723Z 13003KT 03/02 A2996 RMK A01 T00290024  RH  096%=      5-min Rain = 0
KPD1 221724Z 14003KT 03/02 A2996 RMK A01 T00290024  RH  096%=      5-min Rain = 0
KPD1 221725Z 14006KT 03/02 A2996 RMK A01 T00290024  RH  096%=      5-min Rain = 0
KPD1 221726Z 13005KT 03/02 A2996 RMK A01 T00280022  RH  096%=      5-min Rain = 0
KPD1 221727Z 14005KT 03/02 A2996 RMK A01 T00280022  RH  096%=      5-min Rain = 0
KPD1 221728Z 13005KT 03/02 A2996 RMK A01 T00280022  RH  096%=      5-min Rain = 0
KPD1 221729Z 14005KT 03/02 A2996 RMK A01 T00280022  RH  096%=      5-min Rain = 0
KPD1 221730Z 15005KT 03/02 A2996 RMK A01 T00290024  RH  096%=      5-min Rain = 0
KPD1 221731Z 15005KT 03/02 A2996 RMK A01 T00280023  RH  096%=      5-min Rain = 0
KPD1 221732Z 14003KT 03/02 A2996 RMK A01 T00280023  RH  096%=      5-min Rain = 0
KPD1 221733Z 13004KT 03/02 A2995 RMK A01 T00280023  RH  096%=      5-min Rain = 0
KPD1 221734Z 14006KT 03/02 A2995 RMK A01 T00300024  RH  096%=      5-min Rain = 0
KPD1 221735Z 15006KT 03/02 A2995 RMK A01 T00290024  RH  096%=      5-min Rain = 0
KPD1 221736Z 15005KT 03/02 A2995 RMK A01 T00290024  RH  096%=      5-min Rain = 0
KPD1 221737Z 15005KT 03/02 A2995 RMK A01 T00300024  RH  096%=      5-min Rain = 0
KPD1 221738Z 14007KT 03/02 A2995 RMK A01 T00290023  RH  096%=      5-min Rain = 0
KPD1 221739Z 14006KT 03/02 A2995 RMK A01 T00290023  RH  096%=      5-min Rain = 0
KPD1 221740Z 14004KT 03/02 A2995 RMK A01 T00290023  RH  096%=      5-min Rain = 0
KPD1 221741Z 14005KT 03/02 A2995 RMK A01 T00300024  RH  096%=      5-min Rain = 0
KPD1 221742Z 14006KT 03/03 A2995 RMK A01 T00300025  RH  096%=      5-min Rain = 0
KPD1 221743Z 14005KT 03/03 A2995 RMK A01 T00310025  RH  096%=      5-min Rain = 0
KPD1 221744Z 14006KT 03/03 A2995 RMK A01 T00310026  RH  096%=      5-min Rain = 0
KPD1 221745Z 15006KT 03/03 A2995 RMK A01 T00320026  RH  096%=      5-min Rain = 0
KPD1 221746Z 14006KT 03/03 A2995 RMK A01 T00310026  RH  096%=      5-min Rain = 0
KPD1 221747Z 12005KT 03/03 A2995 RMK A01 T00320026  RH  096%=      5-min Rain = 0
KPD1 221748Z 14005KT 03/03 A2995 RMK A01 T00320027  RH  096%=      5-min Rain = 0
KPD1 221749Z 14004KT 03/03 A2995 RMK A01 T00330028  RH  096%=      5-min Rain = 0
KPD1 221750Z 14005KT 03/03 A2995 RMK A01 T00320027  RH  096%=      5-min Rain = 0
KPD1 221751Z 13006KT 03/03 A2995 RMK A01 T00320027  RH  096%=      5-min Rain = 0
KPD1 221752Z 14007KT 03/03 A2995 RMK A01 T00320027  RH  096%=      5-min Rain = 0
KPD1 221753Z 13007KT 03/03 A2995 RMK A01 T00320026  RH  096%=      5-min Rain = 0
KPD1 221754Z 12005KT 03/03 A2995 RMK A01 T00310025  RH  096%=      5-min Rain = 0
KPD1 221755Z 13005KT 03/03 A2995 RMK A01 T00310025  RH  096%=      5-min Rain = 0
KPD1 221756Z 15006KT 03/03 A2995 RMK A01 T00310026  RH  096%=      5-min Rain = 0
KPD1 221757Z 13005KT 03/03 A2995 RMK A01 T00320026  RH  096%=      5-min Rain = 0
KPD1 221758Z 14005KT 03/03 A2994 RMK A01 T00310025  RH  096%=      5-min Rain = 0
KPD1 221759Z 13005KT 03/03 A2994 RMK A01 T00320026  RH  096%=      5-min Rain = 0
KPD1 221800Z 13006KT 03/03 A2994 RMK A01 T00330027  RH  096%=      5-min Rain = 0
KPD1 221801Z 14006KT 03/03 A2994 RMK A01 T00340028  RH  096%=      5-min Rain = 0
KPD1 221802Z 15007KT 03/03 A2994 RMK A01 T00330028  RH  096%=      5-min Rain = 0
KPD1 221803Z 14007KT 03/03 A2994 RMK A01 T00320026  RH  096%=      5-min Rain = 0
KPD1 221804Z 14006KT 03/03 A2994 RMK A01 T00330027  RH  096%=      5-min Rain = 0
KPD1 221805Z 14005KT 03/03 A2994 RMK A01 T00340028  RH  096%=      5-min Rain = 0
KPD1 221806Z 14006KT 03/03 A2994 RMK A01 T00340028  RH  096%=      5-min Rain = 0
KPD1 221807Z 15005KT 03/03 A2994 RMK A01 T00340028  RH  096%=      5-min Rain = 0
KPD1 221808Z 14006KT 03/03 A2994 RMK A01 T00340029  RH  096%=      5-min Rain = 0
KPD1 221809Z 14005KT 03/03 A2994 RMK A01 T00340028  RH  096%=      5-min Rain = 0
KPD1 221810Z 15008KT 04/03 A2994 RMK A01 T00350029  RH  096%=      5-min Rain = 0
KPD1 221811Z 14007KT 03/03 A2994 RMK A01 T00340028  RH  096%=      5-min Rain = 0
KPD1 221812Z 14005KT 03/03 A2994 RMK A01 T00340028  RH  096%=      5-min Rain = 0
KPD1 221813Z 14005KT 04/03 A2994 RMK A01 T00350029  RH  096%=      5-min Rain = 0
KPD1 221814Z 14005KT 04/03 A2994 RMK A01 T00360030  RH  096%=      5-min Rain = 0
KPD1 221815Z 14008KT 04/03 A2994 RMK A01 T00360030  RH  096%=      5-min Rain = 0
KPD1 221816Z 15006KT 04/03 A2994 RMK A01 T00360029  RH  096%=      5-min Rain = 0
KPD1 221817Z 14006KT 04/03 A2994 RMK A01 T00360029  RH  096%=      5-min Rain = 0
KPD1 221818Z 14006KT 04/03 A2994 RMK A01 T00360030  RH  096%=      5-min Rain = 0
KPD1 221819Z 14005KT 04/03 A2994 RMK A01 T00360030  RH  096%=      5-min Rain = 0
KPD1 221820Z 14006KT 04/03 A2994 RMK A01 T00370031  RH  096%=      5-min Rain = 0
KPD1 221821Z 15005KT 04/03 A2994 RMK A01 T00380032  RH  096%=      5-min Rain = 0
KPD1 221822Z 14006KT 04/03 A2994 RMK A01 T00380032  RH  096%=      5-min Rain = 0
KPD1 221823Z 15007KT 04/03 A2994 RMK A01 T00380031  RH  096%=      5-min Rain = 0
KPD1 221824Z 15006KT 04/03 A2993 RMK A01 T00380031  RH  096%=      5-min Rain = 0
KPD1 221825Z 15007KT 04/03 A2993 RMK A01 T00380032  RH  096%=      5-min Rain = 0
KPD1 221826Z 14005KT 04/03 A2993 RMK A01 T00380032  RH  095%=      5-min Rain = 0
KPD1 221827Z 15004KT 04/03 A2993 RMK A01 T00390032  RH  095%=      5-min Rain = 0
KPD1 221828Z 14005KT 04/03 A2993 RMK A01 T00390032  RH  096%=      5-min Rain = 0
KPD1 221829Z 14006KT 04/03 A2993 RMK A01 T00390032  RH  095%=      5-min Rain = 0
KPD1 221830Z 14006KT 04/03 A2993 RMK A01 T00400033  RH  095%=      5-min Rain = 0
KPD1 221831Z 15005KT 04/03 A2993 RMK A01 T00400033  RH  095%=      5-min Rain = 0
KPD1 221832Z 14006KT 04/03 A2993 RMK A01 T00400033  RH  095%=      5-min Rain = 0
KPD1 221833Z 15006KT 04/03 A2993 RMK A01 T00400033  RH  095%=      5-min Rain = 0
KPD1 221834Z 14006KT 04/03 A2993 RMK A01 T00400033  RH  095%=      5-min Rain = 0
KPD1 221835Z 13005KT 04/03 A2993 RMK A01 T00400033  RH  095%=      5-min Rain = 0
KPD1 221836Z 13004KT 04/03 A2993 RMK A01 T00410034  RH  095%=      5-min Rain = 0
KPD1 221837Z 14004KT 04/03 A2993 RMK A01 T00420034  RH  095%=      5-min Rain = 0
KPD1 221838Z 14004KT 04/04 A2993 RMK A01 T00430036  RH  095%=      5-min Rain = 0
KPD1 221839Z 14005KT 05/04 A2992 RMK A01 T00450037  RH  095%=      5-min Rain = 0
KPD1 221840Z 14005KT 05/04 A2992 RMK A01 T00450036  RH  094%=      5-min Rain = 0
KPD1 221841Z 15006KT 05/04 A2992 RMK A01 T00450036  RH  094%=      5-min Rain = 0
KPD1 221842Z 15005KT 05/04 A2992 RMK A01 T00450037  RH  094%=      5-min Rain = 0
KPD1 221843Z 14005KT 05/04 A2992 RMK A01 T00450036  RH  094%=      5-min Rain = 0
KPD1 221844Z 15005KT 05/04 A2992 RMK A01 T00450036  RH  094%=      5-min Rain = 0
KPD1 221845Z 15006KT 05/04 A2992 RMK A01 T00450035  RH  093%=      5-min Rain = 0
KPD1 221846Z 14005KT 05/03 A2992 RMK A01 T00450034  RH  093%=      5-min Rain = 0
KPD1 221847Z 14005KT 05/04 A2992 RMK A01 T00450035  RH  093%=      5-min Rain = 0
KPD1 221848Z 14005KT 05/03 A2992 RMK A01 T00460034  RH  092%=      5-min Rain = 0
KPD1 221849Z 16004KT 05/04 A2992 RMK A01 T00460035  RH  092%=      5-min Rain = 0
KPD1 221850Z 16005KT 05/04 A2992 RMK A01 T00460035  RH  092%=      5-min Rain = 0
KPD1 221851Z 15005KT 05/03 A2992 RMK A01 T00470034  RH  092%=      5-min Rain = 0
KPD1 221852Z 15004KT 05/03 A2992 RMK A01 T00470034  RH  091%=      5-min Rain = 0
KPD1 221853Z 15007KT 05/03 A2992 RMK A01 T00470034  RH  091%=      5-min Rain = 0
KPD1 221854Z 16006KT 05/03 A2992 RMK A01 T00480034  RH  090%=      5-min Rain = 0
KPD1 221855Z 16006KT 05/03 A2992 RMK A01 T00490033  RH  089%=      5-min Rain = 0
KPD1 221856Z 15005KT 05/03 A2992 RMK A01 T00490031  RH  088%=      5-min Rain = 0
KPD1 221857Z 15003KT 05/03 A2992 RMK A01 T00490030  RH  087%=      5-min Rain = 0
KPD1 221858Z 17002KT 05/03 A2992 RMK A01 T00510031  RH  087%=      5-min Rain = 0
KPD1 221859Z 14005KT 05/03 A2991 RMK A01 T00540032  RH  086%=      5-min Rain = 0
KPD1 221900Z 15004KT 06/03 A2991 RMK A01 T00560032  RH  085%=      5-min Rain = 0
KPD1 221901Z 16003KT 06/03 A2991 RMK A01 T00570031  RH  084%=      5-min Rain = 0
KPD1 221902Z 16002KT 06/03 A2991 RMK A01 T00580032  RH  083%=      5-min Rain = 0
KPD1 221903Z 17003KT 06/03 A2991 RMK A01 T00590031  RH  082%=      5-min Rain = 0
KPD1 221904Z 18005KT 06/03 A2991 RMK A01 T00590030  RH  081%=      5-min Rain = 0
KPD1 221905Z 15002KT 06/03 A2991 RMK A01 T00590029  RH  081%=      5-min Rain = 0
KPD1 221906Z 16002KT 06/03 A2991 RMK A01 T00590029  RH  081%=      5-min Rain = 0
KPD1 221907Z 13003KT 06/03 A299 RMK A01 T00600031  RH  082%=      5-min Rain = 0
KPD1 221908Z 10003KT 06/03 A299 RMK A01 T00610031  RH  081%=      5-min Rain = 0
KPD1 221909Z 12003KT 06/03 A299 RMK A01 T00630032  RH  081%=      5-min Rain = 0
KPD1 221910Z 14002KT 06/03 A299 RMK A01 T00640032  RH  080%=      5-min Rain = 0
KPD1 221911Z 12004KT 06/03 A299 RMK A01 T00640031  RH  079%=      5-min Rain = 0
KPD1 221912Z 12004KT 07/03 A299 RMK A01 T00650032  RH  079%=      5-min Rain = 0
KPD1 221913Z 13004KT 07/03 A299 RMK A01 T00650031  RH  079%=      5-min Rain = 0
KPD1 221914Z 13005KT 07/03 A299 RMK A01 T00660032  RH  079%=      5-min Rain = 0
KPD1 221915Z 13005KT 07/03 A299 RMK A01 T00660031  RH  078%=      5-min Rain = 0
KPD1 221916Z 14005KT 07/03 A299 RMK A01 T00660030  RH  078%=      5-min Rain = 0
KPD1 221917Z 13004KT 07/03 A299 RMK A01 T00660031  RH  078%=      5-min Rain = 0
KPD1 221918Z 11004KT 07/03 A299 RMK A01 T00670031  RH  078%=      5-min Rain = 0
KPD1 221919Z 14005KT 07/03 A299 RMK A01 T00670031  RH  078%=      5-min Rain = 0
KPD1 221920Z 15004KT 07/03 A2989 RMK A01 T00690034  RH  078%=      5-min Rain = 0
KPD1 221921Z 14003KT 07/03 A2989 RMK A01 T00710032  RH  077%=      5-min Rain = 0
KPD1 221922Z 14003KT 07/03 A2989 RMK A01 T00700032  RH  077%=      5-min Rain = 0
KPD1 221923Z 14003KT 07/03 A2989 RMK A01 T00710033  RH  077%=      5-min Rain = 0
KPD1 221924Z 14005KT 07/03 A2989 RMK A01 T00720033  RH  076%=      5-min Rain = 0
KPD1 221925Z 14004KT 07/03 A2989 RMK A01 T00730033  RH  075%=      5-min Rain = 0
KPD1 221926Z 12003KT 07/03 A2989 RMK A01 T00710029  RH  075%=      5-min Rain = 0
KPD1 221927Z 13002KT 07/03 A2989 RMK A01 T00690030  RH  076%=      5-min Rain = 0
KPD1 221928Z 12003KT 07/03 A2989 RMK A01 T00710032  RH  076%=      5-min Rain = 0
KPD1 221929Z 15006KT 07/03 A2989 RMK A01 T00700030  RH  076%=      5-min Rain = 0
KPD1 221930Z 13006KT 07/03 A2988 RMK A01 T00700031  RH  076%=      5-min Rain = 0
KPD1 221931Z 14003KT 07/03 A2988 RMK A01 T00720032  RH  076%=      5-min Rain = 0
KPD1 221932Z 15006KT 07/03 A2988 RMK A01 T00740033  RH  075%=      5-min Rain = 0
KPD1 221933Z 16004KT 08/03 A2988 RMK A01 T00760034  RH  074%=      5-min Rain = 0
KPD1 221934Z 13003KT 08/04 A2988 RMK A01 T00790035  RH  074%=      5-min Rain = 0
KPD1 221935Z 13003KT 08/04 A2988 RMK A01 T00820036  RH  073%=      5-min Rain = 0
KPD1 221936Z 13004KT 08/04 A2988 RMK A01 T00840035  RH  071%=      5-min Rain = 0
KPD1 221937Z 12003KT 08/03 A2988 RMK A01 T00840032  RH  070%=      5-min Rain = 0
KPD1 221938Z 12005KT 08/03 A2988 RMK A01 T00830034  RH  071%=      5-min Rain = 0
KPD1 221939Z 13006KT 08/03 A2988 RMK A01 T00830032  RH  070%=      5-min Rain = 0
KPD1 221940Z 14005KT 09/04 A2988 RMK A01 T00850035  RH  071%=      5-min Rain = 0
KPD1 221941Z 13006KT 09/03 A2988 RMK A01 T00870034  RH  070%=      5-min Rain = 0
KPD1 221942Z 15006KT 09/03 A2988 RMK A01 T00870034  RH  069%=      5-min Rain = 0
KPD1 221943Z 14007KT 09/03 A2988 RMK A01 T00880033  RH  069%=      5-min Rain = 0
KPD1 221944Z 16007KT 09/03 A2988 RMK A01 T00870032  RH  069%=      5-min Rain = 0
KPD1 221945Z 16005KT 09/03 A2987 RMK A01 T00860033  RH  069%=      5-min Rain = 0
KPD1 221946Z 15006KT 09/03 A2987 RMK A01 T00870033  RH  069%=      5-min Rain = 0
KPD1 221947Z 14007KT 09/03 A2987 RMK A01 T00880034  RH  069%=      5-min Rain = 0
KPD1 221948Z 14005KT 09/03 A2987 RMK A01 T00890034  RH  069%=      5-min Rain = 0
KPD1 221949Z 13007KT 09/04 A2987 RMK A01 T00910036  RH  068%=      5-min Rain = 0
KPD1 221950Z 13006KT 09/04 A2987 RMK A01 T00930036  RH  067%=      5-min Rain = 0
KPD1 221951Z 14006KT 09/04 A2987 RMK A01 T00940035  RH  067%=      5-min Rain = 0
KPD1 221952Z 14005KT 09/03 A2987 RMK A01 T00930032  RH  066%=      5-min Rain = 0
KPD1 221953Z 15006KT 09/03 A2987 RMK A01 T00910033  RH  067%=      5-min Rain = 0
KPD1 221954Z 16005KT 09/03 A2987 RMK A01 T00920033  RH  067%=      5-min Rain = 0
KPD1 221955Z 14004KT 09/03 A2987 RMK A01 T00930032  RH  066%=      5-min Rain = 0
KPD1 221956Z 16003KT 09/03 A2987 RMK A01 T00910032  RH  066%=      5-min Rain = 0
KPD1 221957Z 16004KT 09/03 A2986 RMK A01 T00930034  RH  067%=      5-min Rain = 0
KPD1 221958Z 15006KT 09/03 A2986 RMK A01 T00940033  RH  066%=      5-min Rain = 0
KPD1 221959Z 14005KT 09/03 A2986 RMK A01 T00940033  RH  066%=      5-min Rain = 0
KPD1 222000Z 14006KT 09/03 A2986 RMK A01 T00930033  RH  066%=      5-min Rain = 0
KPD1 222001Z 14006KT 10/04 A2986 RMK A01 T00950035  RH  066%=      5-min Rain = 0
KPD1 222002Z 13006KT 10/04 A2986 RMK A01 T00980035  RH  065%=      5-min Rain = 0
KPD1 222003Z 15004KT 10/04 A2986 RMK A01 T01000035  RH  064%=      5-min Rain = 0
KPD1 222004Z 14006KT 10/04 A2986 RMK A01 T01010035  RH  063%=      5-min Rain = 0
KPD1 222005Z 13008KT 10/03 A2986 RMK A01 T01010034  RH  063%=      5-min Rain = 0
KPD1 222006Z 14007KT 10/03 A2986 RMK A01 T00990032  RH  063%=      5-min Rain = 0
KPD1 222007Z 14007KT 10/03 A2986 RMK A01 T00970031  RH  063%=      5-min Rain = 0
KPD1 222008Z 13007KT 10/03 A2986 RMK A01 T00950030  RH  064%=      5-min Rain = 0
KPD1 222009Z 14004KT 09/03 A2986 RMK A01 T00940031  RH  065%=      5-min Rain = 0
KPD1 222010Z 12003G9KT 10/03 A2986 RMK A01 T00960034  RH  065%=      5-min Rain = 0
KPD1 222011Z 14009KT 10/03 A2986 RMK A01 T00980034  RH  064%=      5-min Rain = 0
KPD1 222012Z 14007KT 10/04 A2986 RMK A01 T01020036  RH  064%=      5-min Rain = 0
KPD1 222013Z 15005KT 10/03 A2986 RMK A01 T01040034  RH  062%=      5-min Rain = 0
KPD1 222014Z 15003KT 10/03 A2985 RMK A01 T01010031  RH  062%=      5-min Rain = 0
KPD1 222015Z 14006KT 10/03 A2985 RMK A01 T01000034  RH  063%=      5-min Rain = 0
KPD1 222016Z 13008KT 10/03 A2985 RMK A01 T01020034  RH  062%=      5-min Rain = 0
KPD1 222017Z 14006KT 10/03 A2985 RMK A01 T01020033  RH  062%=      5-min Rain = 0
KPD1 222018Z 14007KT 10/03 A2985 RMK A01 T01030033  RH  062%=      5-min Rain = 0
KPD1 222019Z 12005KT 10/03 A2985 RMK A01 T01000030  RH  062%=      5-min Rain = 0
KPD1 222020Z 12005KT 10/03 A2985 RMK A01 T00990031  RH  063%=      5-min Rain = 0
KPD1 222021Z 10004KT 10/03 A2985 RMK A01 T00990031  RH  063%=      5-min Rain = 0
KPD1 222022Z 09004KT 10/03 A2985 RMK A01 T00990031  RH  063%=      5-min Rain = 0
KPD1 222023Z 09006KT 10/03 A2985 RMK A01 T00970031  RH  063%=      5-min Rain = 0
KPD1 222024Z 08005KT 10/03 A2985 RMK A01 T00980031  RH  063%=      5-min Rain = 0
KPD1 222025Z 15004KT 10/03 A2985 RMK A01 T00990031  RH  063%=      5-min Rain = 0
KPD1 222026Z 15005KT 10/03 A2985 RMK A01 T01000031  RH  063%=      5-min Rain = 0
KPD1 222027Z 17002KT 10/03 A2985 RMK A01 T00990031  RH  062%=      5-min Rain = 0
KPD1 222028Z 14005KT 10/03 A2985 RMK A01 T01010032  RH  062%=      5-min Rain = 0
KPD1 222029Z 14008KT 10/03 A2985 RMK A01 T01040033  RH  062%=      5-min Rain = 0
KPD1 222030Z 14008KT 11/03 A2984 RMK A01 T01060033  RH  061%=      5-min Rain = 0
KPD1 222031Z 14008KT 11/03 A2984 RMK A01 T01060032  RH  060%=      5-min Rain = 0
KPD1 222032Z 15006KT 11/03 A2984 RMK A01 T01050032  RH  060%=      5-min Rain = 0
KPD1 222033Z 14007KT 11/03 A2984 RMK A01 T01060033  RH  061%=      5-min Rain = 0
KPD1 222034Z 13006KT 11/03 A2984 RMK A01 T01080033  RH  060%=      5-min Rain = 0
KPD1 222035Z 14003G8KT 11/03 A2984 RMK A01 T01080032  RH  059%=      5-min Rain = 0
KPD1 222036Z 15008KT 11/03 A2984 RMK A01 T01100034  RH  059%=      5-min Rain = 0
KPD1 222037Z 14006KT 11/04 A2984 RMK A01 T01130036  RH  059%=      5-min Rain = 0
KPD1 222038Z 15005KT 12/04 A2984 RMK A01 T01160035  RH  057%=      5-min Rain = 0
KPD1 222039Z 13005KT 12/03 A2984 RMK A01 T01150032  RH  057%=      5-min Rain = 0
KPD1 222040Z 15007KT 11/03 A2984 RMK A01 T01120031  RH  058%=      5-min Rain = 0
KPD1 222041Z 16008KT 11/03 A2984 RMK A01 T01100032  RH  058%=      5-min Rain = 0
KPD1 222042Z 15006KT 11/03 A2984 RMK A01 T01080032  RH  059%=      5-min Rain = 0
KPD1 222043Z 15007KT 11/03 A2984 RMK A01 T01090032  RH  059%=      5-min Rain = 0
KPD1 222044Z 14006KT 11/03 A2984 RMK A01 T01080030  RH  059%=      5-min Rain = 0
KPD1 222045Z 14008KT 11/03 A2984 RMK A01 T01070031  RH  059%=      5-min Rain = 0
KPD1 222046Z 13005KT 11/03 A2984 RMK A01 T01070031  RH  060%=      5-min Rain = 0
KPD1 222047Z 13007G12KT 11/03 A2983 RMK A01 T01080032  RH  059%=      5-min Rain = 0
KPD1 222048Z 14008KT 11/03 A2983 RMK A01 T01100033  RH  059%=      5-min Rain = 0
KPD1 222049Z 14007KT 11/03 A2983 RMK A01 T01110032  RH  058%=      5-min Rain = 0
KPD1 222050Z 15006KT 11/03 A2983 RMK A01 T01110032  RH  058%=      5-min Rain = 0
KPD1 222051Z 15003KT 11/03 A2983 RMK A01 T01110033  RH  059%=      5-min Rain = 0
KPD1 222052Z 16006KT 11/03 A2983 RMK A01 T01130034  RH  058%=      5-min Rain = 0
KPD1 222053Z 15003KT 11/03 A2983 RMK A01 T01130033  RH  058%=      5-min Rain = 0
KPD1 222054Z 15006KT 12/03 A2983 RMK A01 T01150034  RH  057%=      5-min Rain = 0
KPD1 222055Z 15008KT 12/03 A2983 RMK A01 T01160033  RH  057%=      5-min Rain = 0
KPD1 222056Z 17008KT 12/03 A2983 RMK A01 T01160033  RH  056%=      5-min Rain = 0
KPD1 222057Z 16006KT 12/03 A2983 RMK A01 T01170032  RH  056%=      5-min Rain = 0
KPD1 222058Z 14006KT 12/03 A2983 RMK A01 T01160031  RH  056%=      5-min Rain = 0
KPD1 222059Z 14007KT 12/03 A2983 RMK A01 T01170032  RH  056%=      5-min Rain = 0
KPD1 222100Z 13008KT 12/03 A2983 RMK A01 T01170032  RH  056%=      5-min Rain = 0
KPD1 222101Z 14008KT 12/03 A2983 RMK A01 T01200032  RH  055%=      5-min Rain = 0
KPD1 222102Z 13007KT 12/03 A2983 RMK A01 T01200032  RH  055%=      5-min Rain = 0
KPD1 222103Z 14006KT 12/03 A2983 RMK A01 T01200032  RH  055%=      5-min Rain = 0
KPD1 222104Z 14008KT 12/03 A2982 RMK A01 T01200032  RH  055%=      5-min Rain = 0
KPD1 222105Z 15009KT 12/03 A2982 RMK A01 T01210032  RH  055%=      5-min Rain = 0
KPD1 222106Z 14009KT 12/03 A2982 RMK A01 T01210032  RH  054%=      5-min Rain = 0
KPD1 222107Z 14008KT 12/03 A2982 RMK A01 T01200032  RH  055%=      5-min Rain = 0
KPD1 222108Z 12006KT 12/03 A2982 RMK A01 T01200031  RH  054%=      5-min Rain = 0
KPD1 222109Z 14007KT 12/03 A2982 RMK A01 T01180029  RH  054%=      5-min Rain = 0
KPD1 222110Z 13006KT 12/03 A2982 RMK A01 T01180031  RH  055%=      5-min Rain = 0
KPD1 222111Z 14008G13KT 12/03 A2982 RMK A01 T01220033  RH  055%=      5-min Rain = 0
KPD1 222112Z 14009KT 12/03 A2982 RMK A01 T01240031  RH  053%=      5-min Rain = 0
KPD1 222113Z 14009G15KT 12/03 A2982 RMK A01 T01220029  RH  053%=      5-min Rain = 0
KPD1 222114Z 18011KT 12/03 A2982 RMK A01 T01200029  RH  054%=      5-min Rain = 0
KPD1 222115Z 18010KT 12/03 A2982 RMK A01 T01190029  RH  054%=      5-min Rain = 0
KPD1 222116Z 14008KT 12/03 A2982 RMK A01 T01170029  RH  054%=      5-min Rain = 0
KPD1 222117Z 14010KT 12/03 A2982 RMK A01 T01180030  RH  055%=      5-min Rain = 0
KPD1 222118Z 14007KT 12/03 A2982 RMK A01 T01190030  RH  054%=      5-min Rain = 0
KPD1 222119Z 13006G11KT 12/03 A2982 RMK A01 T01180030  RH  055%=      5-min Rain = 0
KPD1 222120Z 12007KT 12/03 A2982 RMK A01 T01200031  RH  055%=      5-min Rain = 0
KPD1 222121Z 12007KT 12/03 A2982 RMK A01 T01200030  RH  054%=      5-min Rain = 0
KPD1 222122Z 15009KT 12/03 A2982 RMK A01 T01200031  RH  054%=      5-min Rain = 0
KPD1 222123Z 14009KT 12/03 A2982 RMK A01 T01220031  RH  054%=      5-min Rain = 0
KPD1 222124Z 15011KT 12/03 A2982 RMK A01 T01220030  RH  053%=      5-min Rain = 0
KPD1 222125Z 15008KT 12/03 A2982 RMK A01 T01210030  RH  054%=      5-min Rain = 0
KPD1 222126Z 13011KT 12/03 A2982 RMK A01 T01200030  RH  054%=      5-min Rain = 0
KPD1 222127Z 14010KT 12/03 A2982 RMK A01 T01200030  RH  054%=      5-min Rain = 0
KPD1 222128Z 14010KT 12/03 A2982 RMK A01 T01190030  RH  054%=      5-min Rain = 0
KPD1 222129Z 14008KT 12/03 A2982 RMK A01 T01200031  RH  054%=      5-min Rain = 0
KPD1 222130Z 13009KT 12/03 A2982 RMK A01 T01210030  RH  054%=      5-min Rain = 0
KPD1 222131Z 13008KT 12/03 A2982 RMK A01 T01210030  RH  054%=      5-min Rain = 0
KPD1 222132Z 12009KT 12/03 A2982 RMK A01 T01210029  RH  053%=      5-min Rain = 0
KPD1 222133Z 14010KT 12/03 A2982 RMK A01 T01210029  RH  053%=      5-min Rain = 0
KPD1 222134Z 14010KT 12/03 A2982 RMK A01 T01200030  RH  054%=      5-min Rain = 0
KPD1 222135Z 14009KT 12/03 A2982 RMK A01 T01200030  RH  054%=      5-min Rain = 0
KPD1 222136Z 13010KT 12/03 A2981 RMK A01 T01200030  RH  054%=      5-min Rain = 0
KPD1 222137Z 13009KT 12/03 A2982 RMK A01 T01210031  RH  054%=      5-min Rain = 0
KPD1 222138Z 13007KT 12/03 A2982 RMK A01 T01220031  RH  054%=      5-min Rain = 0
KPD1 222139Z 13007KT 12/03 A2981 RMK A01 T01230031  RH  054%=      5-min Rain = 0
KPD1 222140Z 14010KT 12/03 A2981 RMK A01 T01230031  RH  053%=      5-min Rain = 0
KPD1 222141Z 14008KT 12/03 A2981 RMK A01 T01230031  RH  053%=      5-min Rain = 0
KPD1 222142Z 13010KT 12/03 A2981 RMK A01 T01230031  RH  053%=      5-min Rain = 0
KPD1 222143Z 14010KT 12/03 A2981 RMK A01 T01230031  RH  053%=      5-min Rain = 0
KPD1 222144Z 13011KT 12/03 A2981 RMK A01 T01220030  RH  054%=      5-min Rain = 0
KPD1 222145Z 14009KT 12/03 A2981 RMK A01 T01210030  RH  054%=      5-min Rain = 0
KPD1 222146Z 14008KT 12/03 A2981 RMK A01 T01190029  RH  054%=      5-min Rain = 0
KPD1 222147Z 15009KT 12/03 A2981 RMK A01 T01200031  RH  054%=      5-min Rain = 0
KPD1 222148Z 15010KT 12/03 A2981 RMK A01 T01210030  RH  054%=      5-min Rain = 0
KPD1 222149Z 15009KT 12/03 A2981 RMK A01 T01200030  RH  054%=      5-min Rain = 0
KPD1 222150Z 14010KT 12/03 A2981 RMK A01 T01200032  RH  055%=      5-min Rain = 0
KPD1 222151Z 13008KT 12/03 A2981 RMK A01 T01200032  RH  055%=      5-min Rain = 0
KPD1 222152Z 13010KT 12/03 A2981 RMK A01 T01200032  RH  055%=      5-min Rain = 0
KPD1 222153Z 14010KT 12/03 A2981 RMK A01 T01200032  RH  055%=      5-min Rain = 0
KPD1 222154Z 13008KT 12/03 A2981 RMK A01 T01210033  RH  055%=      5-min Rain = 0
KPD1 222155Z 14008KT 12/03 A2981 RMK A01 T01220033  RH  054%=      5-min Rain = 0
KPD1 222156Z 15009KT 12/03 A2981 RMK A01 T01220033  RH  054%=      5-min Rain = 0
KPD1 222157Z 13012KT 12/03 A2981 RMK A01 T01230033  RH  054%=      5-min Rain = 0
KPD1 222158Z 14010KT 12/03 A2981 RMK A01 T01210032  RH  054%=      5-min Rain = 0
KPD1 222159Z 13008KT 12/03 A2981 RMK A01 T01190032  RH  055%=      5-min Rain = 0
KPD1 222200Z 14007KT 12/03 A2981 RMK A01 T01190033  RH  056%=      5-min Rain = 0
KPD1 222201Z 13010KT 12/03 A2981 RMK A01 T01200033  RH  055%=      5-min Rain = 0
KPD1 222202Z 14010KT 12/03 A2981 RMK A01 T01200033  RH  055%=      5-min Rain = 0
KPD1 222203Z 14010KT 12/03 A2981 RMK A01 T01200034  RH  056%=      5-min Rain = 0
KPD1 222204Z 14010KT 12/03 A2981 RMK A01 T01200034  RH  056%=      5-min Rain = 0
KPD1 222205Z 14009KT 12/03 A2981 RMK A01 T01200034  RH  056%=      5-min Rain = 0
KPD1 222206Z 15009KT 12/03 A2981 RMK A01 T01210034  RH  055%=      5-min Rain = 0
KPD1 222207Z 14011KT 12/03 A2981 RMK A01 T01210034  RH  055%=      5-min Rain = 0
KPD1 222208Z 14009KT 12/03 A2981 RMK A01 T01210033  RH  055%=      5-min Rain = 0
KPD1 222209Z 14011KT 12/03 A2981 RMK A01 T01200034  RH  055%=      5-min Rain = 0
KPD1 222210Z 14010KT 12/03 A2981 RMK A01 T01190033  RH  055%=      5-min Rain = 0
KPD1 222211Z 13010KT 12/03 A2981 RMK A01 T01190033  RH  056%=      5-min Rain = 0
KPD1 222212Z 14010KT 12/03 A2981 RMK A01 T01190033  RH  056%=      5-min Rain = 0
KPD1 222213Z 14011G16KT 12/03 A2981 RMK A01 T01190034  RH  056%=      5-min Rain = 0
KPD1 222214Z 14011KT 12/03 A2981 RMK A01 T01180033  RH  056%=      5-min Rain = 0
KPD1 222215Z 14010KT 12/03 A2981 RMK A01 T01180033  RH  056%=      5-min Rain = 0
KPD1 222216Z 15009KT 12/03 A2981 RMK A01 T01180034  RH  056%=      5-min Rain = 0
KPD1 222217Z 15009KT 12/03 A2981 RMK A01 T01180033  RH  056%=      5-min Rain = 0
KPD1 222218Z 14007KT 12/03 A2981 RMK A01 T01180034  RH  056%=      5-min Rain = 0
KPD1 222219Z 15009KT 12/03 A2981 RMK A01 T01180034  RH  056%=      5-min Rain = 0
KPD1 222220Z 15010KT 12/03 A2981 RMK A01 T01190034  RH  056%=      5-min Rain = 0
KPD1 222221Z 15009KT 12/03 A2981 RMK A01 T01190034  RH  056%=      5-min Rain = 0
KPD1 222222Z 14008G13KT 12/03 A2981 RMK A01 T01180034  RH  056%=      5-min Rain = 0
KPD1 222223Z 14011KT 12/03 A2981 RMK A01 T01190034  RH  056%=      5-min Rain = 0
KPD1 222224Z 14011KT 12/03 A2981 RMK A01 T01180034  RH  056%=      5-min Rain = 0
KPD1 222225Z 15011KT 12/03 A2981 RMK A01 T01160033  RH  057%=      5-min Rain = 0
KPD1 222226Z 15013KT 12/03 A2981 RMK A01 T01150033  RH  057%=      5-min Rain = 0
KPD1 222227Z 15012KT 11/03 A2981 RMK A01 T01130032  RH  058%=      5-min Rain = 0
KPD1 222228Z 14011KT 11/03 A2981 RMK A01 T01120033  RH  058%=      5-min Rain = 0
KPD1 222229Z 14011KT 11/03 A2981 RMK A01 T01110032  RH  058%=      5-min Rain = 0
KPD1 222230Z 14011KT 11/03 A2981 RMK A01 T01110033  RH  059%=      5-min Rain = 0
KPD1 222231Z 15013KT 11/03 A2981 RMK A01 T01100032  RH  059%=      5-min Rain = 0
KPD1 222232Z 15010KT 11/03 A2981 RMK A01 T01090032  RH  059%=      5-min Rain = 0
KPD1 222233Z 15014KT 11/03 A2981 RMK A01 T01080032  RH  060%=      5-min Rain = 0
KPD1 222234Z 16013KT 11/03 A2981 RMK A01 T01080033  RH  060%=      5-min Rain = 0
KPD1 222235Z 15012KT 11/03 A2981 RMK A01 T01070032  RH  060%=      5-min Rain = 0
KPD1 222236Z 15012KT 11/03 A2981 RMK A01 T01060032  RH  060%=      5-min Rain = 0
KPD1 222237Z 14012KT 11/03 A2981 RMK A01 T01060032  RH  060%=      5-min Rain = 0
KPD1 222238Z 14011KT 11/03 A2981 RMK A01 T01050032  RH  061%=      5-min Rain = 0
KPD1 222239Z 15010KT 11/03 A2981 RMK A01 T01060033  RH  061%=      5-min Rain = 0
KPD1 222240Z 15013KT 11/03 A2981 RMK A01 T01050032  RH  061%=      5-min Rain = 0
KPD1 222241Z 15011KT 10/03 A2981 RMK A01 T01040032  RH  061%=      5-min Rain = 0
KPD1 222242Z 15011KT 10/03 A2981 RMK A01 T01040032  RH  061%=      5-min Rain = 0
KPD1 222243Z 15012KT 10/03 A2981 RMK A01 T01030032  RH  061%=      5-min Rain = 0
KPD1 222244Z 15012KT 10/03 A2981 RMK A01 T01030032  RH  061%=      5-min Rain = 0
KPD1 222245Z 14011KT 10/03 A2981 RMK A01 T01010031  RH  062%=      5-min Rain = 0
KPD1 222246Z 13009KT 10/03 A2981 RMK A01 T01010031  RH  062%=      5-min Rain = 0
KPD1 222247Z 14008KT 10/03 A2981 RMK A01 T01020032  RH  062%=      5-min Rain = 0
KPD1 222248Z 14010KT 10/03 A2981 RMK A01 T01030033  RH  062%=      5-min Rain = 0
KPD1 222249Z 15013KT 10/03 A2981 RMK A01 T01030032  RH  061%=      5-min Rain = 0
KPD1 222250Z 15012KT 10/03 A2981 RMK A01 T01020032  RH  061%=      5-min Rain = 0
KPD1 222251Z 14013KT 10/03 A2981 RMK A01 T01020032  RH  062%=      5-min Rain = 0
KPD1 222252Z 14012KT 10/03 A2981 RMK A01 T01000031  RH  062%=      5-min Rain = 0
KPD1 222253Z 14011KT 10/03 A2981 RMK A01 T01000032  RH  062%=      5-min Rain = 0
KPD1 222254Z 15010G16KT 10/03 A2981 RMK A01 T00990032  RH  063%=      5-min Rain = 0
KPD1 222255Z 14014KT 10/03 A2981 RMK A01 T00990032  RH  063%=      5-min Rain = 0
KPD1 222256Z 15010KT 10/03 A2981 RMK A01 T00990032  RH  063%=      5-min Rain = 0
KPD1 222257Z 14011KT 10/03 A2981 RMK A01 T00990032  RH  063%=      5-min Rain = 0
KPD1 222258Z 15013KT 10/03 A2981 RMK A01 T00990032  RH  063%=      5-min Rain = 0
KPD1 222259Z 15011KT 10/03 A2981 RMK A01 T00980031  RH  063%=      5-min Rain = 0
KPD1 222300Z 15011G16KT 10/03 A2981 RMK A01 T00970031  RH  063%=      5-min Rain = 0
KPD1 222301Z 15013KT 10/03 A2981 RMK A01 T00980032  RH  064%=      5-min Rain = 0
KPD1 222302Z 14014KT 10/03 A2981 RMK A01 T00970031  RH  064%=      5-min Rain = 0
KPD1 222303Z 14013KT 10/03 A2981 RMK A01 T00960031  RH  064%=      5-min Rain = 0
KPD1 222304Z 15012KT 10/03 A2981 RMK A01 T00950030  RH  064%=      5-min Rain = 0
KPD1 222305Z 14010KT 09/03 A2981 RMK A01 T00940031  RH  065%=      5-min Rain = 0
KPD1 222306Z 15011KT 10/03 A2981 RMK A01 T00950032  RH  065%=      5-min Rain = 0
KPD1 222307Z 16012KT 09/03 A2981 RMK A01 T00940031  RH  065%=      5-min Rain = 0
KPD1 222308Z 15012KT 09/03 A2981 RMK A01 T00930031  RH  065%=      5-min Rain = 0
KPD1 222309Z 15011KT 09/03 A2981 RMK A01 T00930031  RH  065%=      5-min Rain = 0
KPD1 222310Z 15014KT 09/03 A2981 RMK A01 T00920031  RH  066%=      5-min Rain = 0
KPD1 222311Z 15013KT 09/03 A2981 RMK A01 T00910030  RH  066%=      5-min Rain = 0
KPD1 222312Z 15011KT 09/03 A2981 RMK A01 T00890031  RH  067%=      5-min Rain = 0
KPD1 222313Z 15010KT 09/03 A2981 RMK A01 T00890031  RH  067%=      5-min Rain = 0
KPD1 222314Z 15014KT 09/03 A2981 RMK A01 T00890031  RH  067%=      5-min Rain = 0
KPD1 222315Z 15012G17KT 09/03 A2981 RMK A01 T00890031  RH  067%=      5-min Rain = 0
KPD1 222316Z 15013KT 09/03 A2981 RMK A01 T00880031  RH  067%=      5-min Rain = 0
KPD1 222317Z 14011KT 09/03 A2981 RMK A01 T00870030  RH  067%=      5-min Rain = 0
KPD1 222318Z 15011KT 09/03 A2981 RMK A01 T00870031  RH  068%=      5-min Rain = 0
KPD1 222319Z 14009KT 09/03 A2981 RMK A01 T00860030  RH  068%=      5-min Rain = 0
KPD1 222320Z 15010KT 09/03 A2981 RMK A01 T00850030  RH  068%=      5-min Rain = 0
KPD1 222321Z 15012KT 09/03 A2981 RMK A01 T00850030  RH  068%=      5-min Rain = 0
KPD1 222322Z 15011KT 08/03 A2981 RMK A01 T00830029  RH  069%=      5-min Rain = 0
KPD1 222323Z 15012G17KT 08/03 A2981 RMK A01 T00830030  RH  069%=      5-min Rain = 0
KPD1 222324Z 15013KT 08/03 A2981 RMK A01 T00810029  RH  070%=      5-min Rain = 0
KPD1 222325Z 15011G16KT 08/03 A2981 RMK A01 T00800029  RH  070%=      5-min Rain = 0
KPD1 222326Z 15011KT 08/03 A2981 RMK A01 T00790029  RH  071%=      5-min Rain = 0
KPD1 222327Z 15010KT 08/03 A2981 RMK A01 T00790031  RH  071%=      5-min Rain = 0
KPD1 222328Z 15010KT 08/03 A2981 RMK A01 T00780030  RH  072%=      5-min Rain = 0
KPD1 222329Z 15010KT 08/03 A2981 RMK A01 T00780030  RH  072%=      5-min Rain = 0
KPD1 222330Z 15012KT 08/03 A2981 RMK A01 T00770030  RH  072%=      5-min Rain = 0
KPD1 222331Z 16010G15KT 08/03 A2981 RMK A01 T00770029  RH  072%=      5-min Rain = 0
KPD1 222332Z 15011G16KT 08/03 A2981 RMK A01 T00760030  RH  072%=      5-min Rain = 0
KPD1 222333Z 15012KT 08/03 A2981 RMK A01 T00750029  RH  073%=      5-min Rain = 0
KPD1 222334Z 15012KT 07/03 A2981 RMK A01 T00730028  RH  073%=      5-min Rain = 0
KPD1 222335Z 15012KT 07/03 A2981 RMK A01 T00700028  RH  074%=      5-min Rain = 0
KPD1 222336Z 15013KT 07/03 A2981 RMK A01 T00690028  RH  075%=      5-min Rain = 0
KPD1 222337Z 15012KT 07/03 A2981 RMK A01 T00670028  RH  076%=      5-min Rain = 0
KPD1 222338Z 16011KT 07/03 A2981 RMK A01 T00660029  RH  077%=      5-min Rain = 0
KPD1 222339Z 15013KT 07/03 A2981 RMK A01 T00650029  RH  078%=      5-min Rain = 0
KPD1 222340Z 15013KT 06/03 A2981 RMK A01 T00640029  RH  078%=      5-min Rain = 0
KPD1 222341Z 15013KT 06/03 A2981 RMK A01 T00640029  RH  078%=      5-min Rain = 0
KPD1 222342Z 14013KT 06/03 A2981 RMK A01 T00640029  RH  079%=      5-min Rain = 0
KPD1 222343Z 15014KT 06/03 A2981 RMK A01 T00630029  RH  079%=      5-min Rain = 0
KPD1 222344Z 14012KT 06/03 A2981 RMK A01 T00630030  RH  079%=      5-min Rain = 0
KPD1 222345Z 13012G17KT 06/03 A2981 RMK A01 T00620030  RH  080%=      5-min Rain = 0
KPD1 222346Z 14014KT 06/03 A2981 RMK A01 T00620030  RH  080%=      5-min Rain = 0
KPD1 222347Z 15013KT 06/03 A2981 RMK A01 T00610029  RH  080%=      5-min Rain = 0
KPD1 222348Z 14011KT 06/03 A2981 RMK A01 T00600029  RH  081%=      5-min Rain = 0
KPD1 222349Z 13011G16KT 06/03 A2981 RMK A01 T00600031  RH  081%=      5-min Rain = 0
KPD1 222350Z 14010KT 06/03 A2981 RMK A01 T00590030  RH  082%=      5-min Rain = 0
KPD1 222351Z 14010KT 06/03 A2981 RMK A01 T00590030  RH  082%=      5-min Rain = 0
KPD1 222352Z 14011KT 06/03 A2981 RMK A01 T00580030  RH  082%=      5-min Rain = 0
KPD1 222353Z 14013KT 06/03 A2981 RMK A01 T00580030  RH  082%=      5-min Rain = 0
KPD1 222354Z 13012KT 06/03 A2981 RMK A01 T00570030  RH  082%=      5-min Rain = 0
KPD1 222355Z 15012KT 06/03 A2981 RMK A01 T00570030  RH  083%=      5-min Rain = 0
KPD1 222356Z 15013KT 06/03 A2981 RMK A01 T00570030  RH  083%=      5-min Rain = 0
KPD1 222357Z 14014KT 06/03 A2981 RMK A01 T00570031  RH  083%=      5-min Rain = 0
KPD1 222358Z 14013KT 06/03 A2981 RMK A01 T00570031  RH  084%=      5-min Rain = 0
KPD1 222359Z 15012G17KT 06/03 A2981 RMK A01 T00570031  RH  084%=      5-min Rain = 0
KPD1 230000Z 13012KT 06/03 A2981 RMK A01 T00570031  RH  084%=      5-min Rain = 0
KPD1 230001Z 14011KT 06/03 A2982 RMK A01 T00560031  RH  084%=      5-min Rain = 0
KPD1 230002Z 14012KT 06/03 A2982 RMK A01 T00560031  RH  084%=      5-min Rain = 0
KPD1 230003Z 14011KT 06/03 A2982 RMK A01 T00560030  RH  084%=      5-min Rain = 0
KPD1 230004Z 14012G18KT 06/03 A2982 RMK A01 T00560030  RH  084%=      5-min Rain = 0
KPD1 230005Z 13011G16KT 06/03 A2982 RMK A01 T00560030  RH  084%=      5-min Rain = 0
KPD1 230006Z 14010G16KT 06/03 A2981 RMK A01 T00560030  RH  084%=      5-min Rain = 0
KPD1 230007Z 13011KT 06/03 A2981 RMK A01 T00550029  RH  084%=      5-min Rain = 0
KPD1 230008Z 14010KT 06/03 A2981 RMK A01 T00550030  RH  084%=      5-min Rain = 0
KPD1 230009Z 14010G15KT 06/03 A2981 RMK A01 T00550030  RH  084%=      5-min Rain = 0
KPD1 230010Z 13011KT 06/03 A2981 RMK A01 T00550030  RH  084%=      5-min Rain = 0
KPD1 230011Z 13013KT 06/03 A2981 RMK A01 T00550030  RH  084%=      5-min Rain = 0
KPD1 230012Z 14012G17KT 06/03 A2981 RMK A01 T00550030  RH  084%=      5-min Rain = 0
KPD1 230013Z 14013KT 05/03 A2981 RMK A01 T00540029  RH  084%=      5-min Rain = 0
KPD1 230014Z 14012KT 05/03 A2981 RMK A01 T00540029  RH  084%=      5-min Rain = 0
KPD1 230015Z 14010G15KT 05/03 A2981 RMK A01 T00540029  RH  084%=      5-min Rain = 0
KPD1 230016Z 13012KT 05/03 A2981 RMK A01 T00530029  RH  084%=      5-min Rain = 0
KPD1 230017Z 13014KT 05/03 A2981 RMK A01 T00540030  RH  085%=      5-min Rain = 0
KPD1 230018Z 14012KT 05/03 A2982 RMK A01 T00530029  RH  085%=      5-min Rain = 0
KPD1 230019Z 14011KT 05/03 A2982 RMK A01 T00530029  RH  085%=      5-min Rain = 0
KPD1 230020Z 14011G17KT 05/03 A2982 RMK A01 T00530030  RH  085%=      5-min Rain = 0
KPD1 230021Z 14015KT 05/03 A2982 RMK A01 T00530029  RH  085%=      5-min Rain = 0
KPD1 230022Z 13013KT 05/03 A2982 RMK A01 T00530029  RH  085%=      5-min Rain = 0
KPD1 230023Z 13012KT 05/03 A2982 RMK A01 T00530029  RH  085%=      5-min Rain = 0
KPD1 230024Z 14012KT 05/03 A2982 RMK A01 T00520028  RH  085%=      5-min Rain = 0
KPD1 230025Z 14013KT 05/03 A2982 RMK A01 T00520028  RH  085%=      5-min Rain = 0
KPD1 230026Z 14013KT 05/03 A2982 RMK A01 T00520029  RH  085%=      5-min Rain = 0
KPD1 230027Z 13010KT 05/03 A2982 RMK A01 T00520028  RH  085%=      5-min Rain = 0
KPD1 230028Z 15011KT 05/03 A2982 RMK A01 T00520028  RH  085%=      5-min Rain = 0
KPD1 230029Z 14011KT 05/03 A2982 RMK A01 T00520028  RH  085%=      5-min Rain = 0
KPD1 230030Z 14011KT 05/03 A2982 RMK A01 T00510027  RH  085%=      5-min Rain = 0
KPD1 230031Z 14013G18KT 05/03 A2982 RMK A01 T00510027  RH  084%=      5-min Rain = 0
KPD1 230032Z 13013KT 05/03 A2982 RMK A01 T00510027  RH  084%=      5-min Rain = 0
KPD1 230033Z 14013G18KT 05/03 A2982 RMK A01 T00510027  RH  084%=      5-min Rain = 0
KPD1 230034Z 14013KT 05/03 A2982 RMK A01 T00510027  RH  084%=      5-min Rain = 0
KPD1 230035Z 13012KT 05/03 A2982 RMK A01 T00510027  RH  085%=      5-min Rain = 0
KPD1 230036Z 13011KT 05/03 A2982 RMK A01 T00510027  RH  085%=      5-min Rain = 0
KPD1 230037Z 14010G16KT 05/03 A2982 RMK A01 T00510028  RH  085%=      5-min Rain = 0
KPD1 230038Z 15015KT 05/03 A2982 RMK A01 T00510027  RH  085%=      5-min Rain = 0
KPD1 230039Z 13014KT 05/03 A2982 RMK A01 T00510028  RH  085%=      5-min Rain = 0
KPD1 230040Z 14010KT 05/03 A2982 RMK A01 T00510027  RH  085%=      5-min Rain = 0
KPD1 230041Z 14011KT 05/03 A2982 RMK A01 T00500027  RH  085%=      5-min Rain = 0
KPD1 230042Z 14009G15KT 05/03 A2982 RMK A01 T00500027  RH  085%=      5-min Rain = 0
KPD1 230043Z 13008KT 05/03 A2982 RMK A01 T00500027  RH  085%=      5-min Rain = 0
KPD1 230044Z 14009KT 05/03 A2982 RMK A01 T00510027  RH  085%=      5-min Rain = 0
KPD1 230045Z 14010KT 05/03 A2982 RMK A01 T00500027  RH  085%=      5-min Rain = 0
KPD1 230046Z 14013KT 05/03 A2982 RMK A01 T00500027  RH  085%=      5-min Rain = 0
KPD1 230047Z 14014KT 05/03 A2982 RMK A01 T00500027  RH  085%=      5-min Rain = 0
KPD1 230048Z 13012G17KT 05/03 A2982 RMK A01 T00500027  RH  085%=      5-min Rain = 0
KPD1 230049Z 15009KT 05/03 A2982 RMK A01 T00490026  RH  085%=      5-min Rain = 0
KPD1 230050Z 14012KT 05/03 A2982 RMK A01 T00490027  RH  085%=      5-min Rain = 0
KPD1 230051Z 14009KT 05/03 A2982 RMK A01 T00490026  RH  085%=      5-min Rain = 0
KPD1 230052Z 14010KT 05/03 A2982 RMK A01 T00490027  RH  085%=      5-min Rain = 0
KPD1 230053Z 13013KT 05/03 A2982 RMK A01 T00500027  RH  085%=      5-min Rain = 0
KPD1 230054Z 15010G15KT 05/03 A2982 RMK A01 T00490026  RH  085%=      5-min Rain = 0
KPD1 230055Z 13011G16KT 05/03 A2982 RMK A01 T00500027  RH  085%=      5-min Rain = 0
KPD1 230056Z 13011KT 05/03 A2982 RMK A01 T00490027  RH  085%=      5-min Rain = 0
KPD1 230057Z 13011KT 05/03 A2982 RMK A01 T00490027  RH  085%=      5-min Rain = 0
KPD1 230058Z 12009KT 05/03 A2982 RMK A01 T00490027  RH  085%=      5-min Rain = 0
KPD1 230059Z 14006KT 05/03 A2982 RMK A01 T00490027  RH  085%=      5-min Rain = 0
KPD1 230100Z 14008KT 05/03 A2982 RMK A01 T00490026  RH  085%=      5-min Rain = 0
KPD1 230101Z 14008KT 05/03 A2982 RMK A01 T00490026  RH  085%=      5-min Rain = 0
KPD1 230102Z 15006KT 05/03 A2983 RMK A01 T00490026  RH  085%=      5-min Rain = 0
KPD1 230103Z 14007KT 05/03 A2983 RMK A01 T00490026  RH  085%=      5-min Rain = 0
KPD1 230104Z 14009KT 05/03 A2982 RMK A01 T00490026  RH  085%=      5-min Rain = 0
KPD1 230105Z 14011KT 05/03 A2982 RMK A01 T00490027  RH  085%=      5-min Rain = 0
KPD1 230106Z 14011KT 05/03 A2982 RMK A01 T00490026  RH  085%=      5-min Rain = 0
KPD1 230107Z 14009KT 05/03 A2982 RMK A01 T00490027  RH  085%=      5-min Rain = 0
KPD1 230108Z 14012KT 05/03 A2982 RMK A01 T00490027  RH  085%=      5-min Rain = 0
KPD1 230109Z 14011G16KT 05/03 A2982 RMK A01 T00500027  RH  085%=      5-min Rain = 0
KPD1 230110Z 14011G16KT 05/03 A2982 RMK A01 T00490026  RH  085%=      5-min Rain = 0
KPD1 230111Z 14011KT 05/03 A2982 RMK A01 T00490026  RH  085%=      5-min Rain = 0
KPD1 230112Z 14011KT 05/03 A2982 RMK A01 T00490026  RH  085%=      5-min Rain = 0
KPD1 230113Z 13012KT 05/03 A2982 RMK A01 T00490026  RH  085%=      5-min Rain = 0
KPD1 230114Z 14011KT 05/03 A2982 RMK A01 T00490026  RH  085%=      5-min Rain = 0
KPD1 230115Z 14012KT 05/03 A2982 RMK A01 T00490026  RH  085%=      5-min Rain = 0
KPD1 230116Z 14013KT 05/03 A2982 RMK A01 T00490026  RH  085%=      5-min Rain = 0
KPD1 230117Z 14011KT 05/03 A2982 RMK A01 T00490025  RH  085%=      5-min Rain = 0
KPD1 230118Z 13013KT 05/03 A2982 RMK A01 T00490025  RH  084%=      5-min Rain = 0
KPD1 230119Z 13013KT 05/03 A2982 RMK A01 T00490025  RH  084%=      5-min Rain = 0
KPD1 230120Z 14012KT 05/03 A2982 RMK A01 T00490025  RH  084%=      5-min Rain = 0
KPD1 230121Z 14012KT 05/03 A2982 RMK A01 T00490025  RH  084%=      5-min Rain = 0
KPD1 230122Z 14011KT 05/03 A2982 RMK A01 T00490025  RH  084%=      5-min Rain = 0
KPD1 230123Z 13011G16KT 05/03 A2982 RMK A01 T00490025  RH  084%=      5-min Rain = 0
KPD1 230124Z 13010KT 05/03 A2982 RMK A01 T00490025  RH  084%=      5-min Rain = 0
KPD1 230125Z 14011KT 05/03 A2983 RMK A01 T00490025  RH  084%=      5-min Rain = 0
KPD1 230126Z 14009KT 05/03 A2983 RMK A01 T00500025  RH  084%=      5-min Rain = 0
KPD1 230127Z 14010G15KT 05/03 A2982 RMK A01 T00500025  RH  084%=      5-min Rain = 0
KPD1 230128Z 14012G17KT 05/02 A2982 RMK A01 T00500024  RH  084%=      5-min Rain = 0
KPD1 230129Z 15014G19KT 05/02 A2982 RMK A01 T00500024  RH  084%=      5-min Rain = 0
KPD1 230130Z 14012KT 05/02 A2982 RMK A01 T00490024  RH  084%=      5-min Rain = 0
KPD1 230131Z 14014KT 05/02 A2982 RMK A01 T00500024  RH  084%=      5-min Rain = 0
KPD1 230132Z 14015KT 05/02 A2982 RMK A01 T00500024  RH  084%=      5-min Rain = 0
KPD1 230133Z 14013G18KT 05/02 A2982 RMK A01 T00500024  RH  084%=      5-min Rain = 0
KPD1 230134Z 14013KT 05/02 A2982 RMK A01 T00500024  RH  084%=      5-min Rain = 0
KPD1 230135Z 14014KT 05/02 A2982 RMK A01 T00490024  RH  084%=      5-min Rain = 0
KPD1 230136Z 13010KT 05/03 A2982 RMK A01 T00500025  RH  084%=      5-min Rain = 0
KPD1 230137Z 13011G17KT 05/03 A2982 RMK A01 T00500025  RH  084%=      5-min Rain = 0
KPD1 230138Z 13013KT 05/03 A2982 RMK A01 T00500025  RH  084%=      5-min Rain = 0
KPD1 230139Z 12013KT 05/03 A2982 RMK A01 T00500025  RH  084%=      5-min Rain = 0
KPD1 230140Z 14010KT 05/03 A2982 RMK A01 T00500025  RH  084%=      5-min Rain = 0
KPD1 230141Z 14014G19KT 05/03 A2982 RMK A01 T00490025  RH  084%=      5-min Rain = 0
KPD1 230142Z 14011KT 05/03 A2982 RMK A01 T00500025  RH  084%=      5-min Rain = 0
KPD1 230143Z 13012KT 05/03 A2982 RMK A01 T00500025  RH  084%=      5-min Rain = 0
KPD1 230144Z 13010KT 05/03 A2982 RMK A01 T00490025  RH  084%=      5-min Rain = 0
KPD1 230145Z 14011KT 05/03 A2981 RMK A01 T00500025  RH  084%=      5-min Rain = 0
KPD1 230146Z 13010KT 05/03 A2981 RMK A01 T00500025  RH  084%=      5-min Rain = 0
KPD1 230147Z 13013KT 05/03 A2981 RMK A01 T00500025  RH  084%=      5-min Rain = 0
KPD1 230148Z 13011KT 05/03 A2981 RMK A01 T00500026  RH  084%=      5-min Rain = 0
KPD1 230149Z 13010KT 05/03 A2981 RMK A01 T00490025  RH  084%=      5-min Rain = 0
KPD1 230150Z 13010KT 05/03 A2981 RMK A01 T00490025  RH  084%=      5-min Rain = 0
KPD1 230151Z 14010KT 05/03 A2981 RMK A01 T00500026  RH  084%=      5-min Rain = 0
KPD1 230152Z 14010KT 05/03 A2981 RMK A01 T00500026  RH  084%=      5-min Rain = 0
KPD1 230153Z 13011KT 05/03 A2981 RMK A01 T00500026  RH  085%=      5-min Rain = 0
KPD1 230154Z 13013KT 05/03 A298 RMK A01 T00490025  RH  085%=      5-min Rain = 0
KPD1 230155Z 14012KT 05/03 A298 RMK A01 T00500026  RH  085%=      5-min Rain = 0
KPD1 230156Z 14012KT 05/03 A298 RMK A01 T00500026  RH  085%=      5-min Rain = 0
KPD1 230157Z 13011KT 05/03 A298 RMK A01 T00490026  RH  085%=      5-min Rain = 0
KPD1 230158Z 13011KT 05/03 A298 RMK A01 T00490027  RH  085%=      5-min Rain = 0
KPD1 230159Z 14009G14KT 05/03 A298 RMK A01 T00490027  RH  085%=      5-min Rain = 0
KPD1 230200Z 12012KT 05/03 A298 RMK A01 T00490027  RH  085%=      5-min Rain = 0
KPD1 230201Z 13011KT 05/03 A298 RMK A01 T00490027  RH  086%=      5-min Rain = 0
KPD1 230202Z 14011KT 05/03 A298 RMK A01 T00490027  RH  086%=      5-min Rain = 0
KPD1 230203Z 14011KT 05/03 A298 RMK A01 T00500028  RH  086%=      5-min Rain = 0
KPD1 230204Z 14011KT 05/03 A298 RMK A01 T00490027  RH  086%=      5-min Rain = 0
KPD1 230205Z 14009G15KT 05/03 A298 RMK A01 T00490027  RH  086%=      5-min Rain = 0
KPD1 230206Z 14011G17KT 05/03 A298 RMK A01 T00490027  RH  086%=      5-min Rain = 0
KPD1 230207Z 13009KT 05/03 A298 RMK A01 T00490027  RH  086%=      5-min Rain = 0
KPD1 230208Z 13012KT 05/03 A298 RMK A01 T00490027  RH  086%=      5-min Rain = 0
KPD1 230209Z 14011G16KT 05/03 A298 RMK A01 T00480027  RH  086%=      5-min Rain = 0
KPD1 230210Z 13012KT 05/03 A298 RMK A01 T00480027  RH  086%=      5-min Rain = 0
KPD1 230211Z 13012KT 05/03 A298 RMK A01 T00480027  RH  086%=      5-min Rain = 0
KPD1 230212Z 14013KT 05/03 A298 RMK A01 T00480027  RH  086%=      5-min Rain = 0
KPD1 230213Z 14012KT 05/03 A298 RMK A01 T00480027  RH  086%=      5-min Rain = 0
KPD1 230214Z 13012KT 05/03 A298 RMK A01 T00480027  RH  086%=      5-min Rain = 0
KPD1 230215Z 13007KT 05/03 A298 RMK A01 T00480026  RH  086%=      5-min Rain = 0
KPD1 230216Z 14016KT 05/03 A298 RMK A01 T00480027  RH  086%=      5-min Rain = 0
KPD1 230217Z 14014G19KT 05/03 A298 RMK A01 T00480027  RH  087%=      5-min Rain = 0
KPD1 230218Z 13012KT 05/03 A298 RMK A01 T00480027  RH  087%=      5-min Rain = 0
KPD1 230219Z 13013KT 05/03 A2979 RMK A01 T00470028  RH  087%=      5-min Rain = 0
KPD1 230220Z 13013KT 05/03 A2979 RMK A01 T00470027  RH  087%=      5-min Rain = 0
KPD1 230221Z 14010KT 05/03 A2979 RMK A01 T00470028  RH  087%=      5-min Rain = 0
KPD1 230222Z 14011KT 05/03 A2979 RMK A01 T00470028  RH  088%=      5-min Rain = 0
KPD1 230223Z 14010KT 05/03 A2979 RMK A01 T00460028  RH  088%=      5-min Rain = 0
KPD1 230224Z 14012KT 05/03 A2979 RMK A01 T00460028  RH  088%=      5-min Rain = 0
KPD1 230225Z 14011KT 05/03 A2979 RMK A01 T00460028  RH  088%=      5-min Rain = 0
KPD1 230226Z 14011KT 05/03 A2979 RMK A01 T00460028  RH  088%=      5-min Rain = 0
KPD1 230227Z 14008KT 05/03 A2979 RMK A01 T00470028  RH  088%=      5-min Rain = 0
KPD1 230228Z 14011KT 05/03 A2979 RMK A01 T00470028  RH  088%=      5-min Rain = 0
KPD1 230229Z 12014KT 05/03 A2979 RMK A01 T00460028  RH  088%=      5-min Rain = 0
KPD1 230230Z 13009KT 05/03 A2979 RMK A01 T00470028  RH  088%=      5-min Rain = 0
KPD1 230231Z 13009KT 05/03 A2979 RMK A01 T00460027  RH  088%=      5-min Rain = 0
KPD1 230232Z 14009KT 05/03 A2979 RMK A01 T00460027  RH  088%=      5-min Rain = 0
KPD1 230233Z 14010KT 05/03 A2979 RMK A01 T00460028  RH  088%=      5-min Rain = 0
KPD1 230234Z 13011KT 05/03 A2978 RMK A01 T00460028  RH  088%=      5-min Rain = 0
KPD1 230235Z 14010KT 05/03 A2979 RMK A01 T00470028  RH  088%=      5-min Rain = 0
KPD1 230236Z 14009KT 05/03 A2979 RMK A01 T00460027  RH  088%=      5-min Rain = 0
KPD1 230237Z 15010KT 05/03 A2979 RMK A01 T00460027  RH  088%=      5-min Rain = 0
KPD1 230238Z 15010KT 05/03 A2979 RMK A01 T00460028  RH  088%=      5-min Rain = 0
KPD1 230239Z 15011KT 05/03 A2979 RMK A01 T00450027  RH  088%=      5-min Rain = 0
KPD1 230240Z 14012KT 05/03 A2979 RMK A01 T00460027  RH  088%=      5-min Rain = 0
KPD1 230241Z 14011KT 05/03 A2979 RMK A01 T00450027  RH  088%=      5-min Rain = 0
KPD1 230242Z 15011KT 05/03 A2978 RMK A01 T00450027  RH  088%=      5-min Rain = 0
KPD1 230243Z 14012KT 05/03 A2979 RMK A01 T00460027  RH  088%=      5-min Rain = 0
KPD1 230244Z 14012KT 05/03 A2979 RMK A01 T00450026  RH  088%=      5-min Rain = 0
KPD1 230245Z 14012KT 05/03 A2979 RMK A01 T00450027  RH  088%=      5-min Rain = 0
KPD1 230246Z 15011KT 05/03 A2979 RMK A01 T00450027  RH  088%=      5-min Rain = 0
KPD1 230247Z 15010G17KT 05/03 A2978 RMK A01 T00450026  RH  088%=      5-min Rain = 0
KPD1 230248Z 13014KT 04/03 A2978 RMK A01 T00440026  RH  088%=      5-min Rain = 0
KPD1 230249Z 13014KT 05/03 A2978 RMK A01 T00450027  RH  088%=      5-min Rain = 0
KPD1 230250Z 13012KT 05/03 A2978 RMK A01 T00450027  RH  088%=      5-min Rain = 0
KPD1 230251Z 13011KT 04/03 A2979 RMK A01 T00440026  RH  088%=      5-min Rain = 0
KPD1 230252Z 14009G14KT 04/03 A2979 RMK A01 T00440026  RH  088%=      5-min Rain = 0
KPD1 230253Z 13012KT 04/03 A2979 RMK A01 T00440027  RH  088%=      5-min Rain = 0
KPD1 230254Z 14011KT 04/03 A2979 RMK A01 T00440026  RH  088%=      5-min Rain = 0
KPD1 230255Z 13010KT 04/03 A2979 RMK A01 T00440026  RH  088%=      5-min Rain = 0
KPD1 230256Z 13010G15KT 04/03 A2978 RMK A01 T00440026  RH  088%=      5-min Rain = 0
KPD1 230257Z 14009KT 04/03 A2978 RMK A01 T00440026  RH  088%=      5-min Rain = 0
KPD1 230258Z 14009KT 04/03 A2978 RMK A01 T00440026  RH  088%=      5-min Rain = 0
KPD1 230259Z 14010KT 04/03 A2978 RMK A01 T00430025  RH  088%=      5-min Rain = 0
KPD1 230300Z 14010KT 04/03 A2979 RMK A01 T00440026  RH  088%=      5-min Rain = 0
KPD1 230301Z 14010G16KT 04/03 A2978 RMK A01 T00430026  RH  088%=      5-min Rain = 0
KPD1 230302Z 13010KT 04/03 A2978 RMK A01 T00440026  RH  088%=      5-min Rain = 0
KPD1 230303Z 14009KT 04/03 A2978 RMK A01 T00440026  RH  088%=      5-min Rain = 0
KPD1 230304Z 14011KT 04/03 A2978 RMK A01 T00440025  RH  088%=      5-min Rain = 0
KPD1 230305Z 14009KT 04/03 A2978 RMK A01 T00440025  RH  088%=      5-min Rain = 0
KPD1 230306Z 14011KT 04/03 A2978 RMK A01 T00440025  RH  088%=      5-min Rain = 0
KPD1 230307Z 14011KT 04/03 A2978 RMK A01 T00440025  RH  088%=      5-min Rain = 0
KPD1 230308Z 14009KT 04/03 A2978 RMK A01 T00440025  RH  088%=      5-min Rain = 0
KPD1 230309Z 15009KT 04/03 A2978 RMK A01 T00440025  RH  088%=      5-min Rain = 0
KPD1 230310Z 15010KT 04/03 A2978 RMK A01 T00440025  RH  088%=      5-min Rain = 0
KPD1 230311Z 13008KT 04/03 A2978 RMK A01 T00430025  RH  088%=      5-min Rain = 0
KPD1 230312Z 13010KT 04/03 A2978 RMK A01 T00440025  RH  088%=      5-min Rain = 0
KPD1 230313Z 14011KT 04/03 A2978 RMK A01 T00430025  RH  088%=      5-min Rain = 0
KPD1 230314Z 14011KT 04/03 A2978 RMK A01 T00430025  RH  088%=      5-min Rain = 0
KPD1 230315Z 14011KT 04/03 A2978 RMK A01 T00430025  RH  088%=      5-min Rain = 0
KPD1 230316Z 14011G17KT 04/03 A2979 RMK A01 T00430025  RH  088%=      5-min Rain = 0
KPD1 230317Z 14010KT 04/03 A2979 RMK A01 T00430025  RH  089%=      5-min Rain = 0
KPD1 230318Z 14011KT 04/03 A2979 RMK A01 T00430025  RH  089%=      5-min Rain = 0
KPD1 230319Z 13011KT 04/03 A2979 RMK A01 T00430026  RH  089%=      5-min Rain = 0
KPD1 230320Z 13009KT 04/03 A2979 RMK A01 T00430026  RH  089%=      5-min Rain = 0
KPD1 230321Z 14012KT 04/03 A2979 RMK A01 T00420025  RH  089%=      5-min Rain = 0
KPD1 230322Z 13014KT 04/03 A2979 RMK A01 T00420025  RH  089%=      5-min Rain = 0
KPD1 230323Z 12010KT 04/03 A2979 RMK A01 T00420025  RH  089%=      5-min Rain = 0
KPD1 230324Z 13009KT 04/03 A2979 RMK A01 T00420025  RH  089%=      5-min Rain = 0
KPD1 230325Z 12007KT 04/03 A2978 RMK A01 T00420025  RH  089%=      5-min Rain = 0
KPD1 230326Z 14006KT 04/03 A2978 RMK A01 T00420025  RH  089%=      5-min Rain = 0
KPD1 230327Z 14009KT 04/03 A2979 RMK A01 T00420025  RH  089%=      5-min Rain = 0
KPD1 230328Z 14008KT 04/03 A2978 RMK A01 T00420026  RH  089%=      5-min Rain = 0
KPD1 230329Z 14008G13KT 04/03 A2978 RMK A01 T00420026  RH  089%=      5-min Rain = 0
KPD1 230330Z 14009KT 04/03 A2978 RMK A01 T00420026  RH  089%=      5-min Rain = 0
KPD1 230331Z 14010KT 04/03 A2978 RMK A01 T00420026  RH  089%=      5-min Rain = 0
KPD1 230332Z 14011KT 04/03 A2978 RMK A01 T00420026  RH  089%=      5-min Rain = 0
KPD1 230333Z 14010KT 04/03 A2978 RMK A01 T00420026  RH  089%=      5-min Rain = 0
KPD1 230334Z 13009KT 04/03 A2978 RMK A01 T00410025  RH  089%=      5-min Rain = 0
KPD1 230335Z 12012KT 04/03 A2978 RMK A01 T00420026  RH  089%=      5-min Rain = 0
KPD1 230336Z 14010G15KT 04/03 A2978 RMK A01 T00410025  RH  089%=      5-min Rain = 0
KPD1 230337Z 13013KT 04/03 A2978 RMK A01 T00420026  RH  089%=      5-min Rain = 0
KPD1 230338Z 13008KT 04/03 A2978 RMK A01 T00410025  RH  089%=      5-min Rain = 0
KPD1 230339Z 13008G13KT 04/03 A2978 RMK A01 T00410025  RH  089%=      5-min Rain = 0
KPD1 230340Z 13009G14KT 04/03 A2978 RMK A01 T00420026  RH  089%=      5-min Rain = 0
KPD1 230341Z 14010KT 04/03 A2978 RMK A01 T00410025  RH  089%=      5-min Rain = 0
KPD1 230342Z 12010KT 04/03 A2978 RMK A01 T00410025  RH  089%=      5-min Rain = 0
KPD1 230343Z 13010G17KT 04/03 A2978 RMK A01 T00420026  RH  089%=      5-min Rain = 0
KPD1 230344Z 13010KT 04/03 A2978 RMK A01 T00410025  RH  089%=      5-min Rain = 0
KPD1 230345Z 13010KT 04/03 A2978 RMK A01 T00410025  RH  089%=      5-min Rain = 0
KPD1 230346Z 13011KT 04/03 A2978 RMK A01 T00410026  RH  089%=      5-min Rain = 0
KPD1 230347Z 13010KT 04/03 A2978 RMK A01 T00410025  RH  090%=      5-min Rain = 0
KPD1 230348Z 13009KT 04/03 A2978 RMK A01 T00410026  RH  090%=      5-min Rain = 0
KPD1 230349Z 13009KT 04/03 A2978 RMK A01 T00410025  RH  090%=      5-min Rain = 0
KPD1 230350Z 14013G18KT 04/03 A2978 RMK A01 T00410025  RH  090%=      5-min Rain = 0
KPD1 230351Z 13012G17KT 04/03 A2978 RMK A01 T00410025  RH  089%=      5-min Rain = 0
KPD1 230352Z 14011KT 04/03 A2978 RMK A01 T00410025  RH  089%=      5-min Rain = 0
KPD1 230353Z 14014KT 04/03 A2978 RMK A01 T00410025  RH  089%=      5-min Rain = 0
KPD1 230354Z 14011KT 04/02 A2978 RMK A01 T00410024  RH  089%=      5-min Rain = 0
KPD1 230355Z 14012KT 04/02 A2978 RMK A01 T00410024  RH  089%=      5-min Rain = 0
KPD1 230356Z 14012KT 04/02 A2978 RMK A01 T00400024  RH  089%=      5-min Rain = 0
KPD1 230357Z 14013G18KT 04/02 A2978 RMK A01 T00400024  RH  089%=      5-min Rain = 0
KPD1 230358Z 14011KT 04/02 A2978 RMK A01 T00400024  RH  089%=      5-min Rain = 0
KPD1 230359Z 14011G16KT 04/03 A2978 RMK A01 T00410025  RH  089%=      5-min Rain = 0
KPD1 230400Z 13013G18KT 04/03 A2978 RMK A01 T00410025  RH  090%=      5-min Rain = 0
KPD1 230401Z 14014KT 04/03 A2979 RMK A01 T00400025  RH  090%=      5-min Rain = 0
KPD1 230402Z 13012KT 04/03 A2979 RMK A01 T00410025  RH  090%=      5-min Rain = 0
KPD1 230403Z 13013G18KT 04/03 A2979 RMK A01 T00410025  RH  090%=      5-min Rain = 0
KPD1 230404Z 13012KT 04/03 A2979 RMK A01 T00400025  RH  090%=      5-min Rain = 0
KPD1 230405Z 14011G16KT 04/03 A2979 RMK A01 T00410025  RH  090%=      5-min Rain = 0
KPD1 230406Z 14013KT 04/03 A2979 RMK A01 T00410025  RH  090%=      5-min Rain = 0
KPD1 230407Z 14014G19KT 04/03 A2979 RMK A01 T00400025  RH  090%=      5-min Rain = 0
KPD1 230408Z 13013G20KT 04/03 A2979 RMK A01 T00410025  RH  090%=      5-min Rain = 0
KPD1 230409Z 14013KT 04/03 A2979 RMK A01 T00410025  RH  090%=      5-min Rain = 0
KPD1 230410Z 14014KT 04/03 A2979 RMK A01 T00410026  RH  090%=      5-min Rain = 0
KPD1 230411Z 14013KT 04/03 A2979 RMK A01 T00410026  RH  090%=      5-min Rain = 0
KPD1 230412Z 15013G19KT 04/03 A2979 RMK A01 T00410026  RH  090%=      5-min Rain = 0
KPD1 230413Z 14011KT 04/03 A2979 RMK A01 T00410026  RH  090%=      5-min Rain = 0
KPD1 230414Z 14010G18KT 04/03 A2979 RMK A01 T00410026  RH  090%=      5-min Rain = 0
KPD1 230415Z 13012G17KT 04/03 A2979 RMK A01 T00410026  RH  090%=      5-min Rain = 0
KPD1 230416Z 13012KT 04/03 A2979 RMK A01 T00410027  RH  090%=      5-min Rain = 0
KPD1 230417Z 13012G18KT 04/03 A2979 RMK A01 T00410027  RH  090%=      5-min Rain = 0
KPD1 230418Z 14009G14KT 04/03 A2979 RMK A01 T00410027  RH  091%=      5-min Rain = 0
KPD1 230419Z 14014KT 04/03 A2979 RMK A01 T00410027  RH  091%=      5-min Rain = 0
KPD1 230420Z 14012KT 04/03 A2979 RMK A01 T00410027  RH  091%=      5-min Rain = 0
KPD1 230421Z 13013G19KT 04/03 A2979 RMK A01 T00410027  RH  091%=      5-min Rain = 0
KPD1 230422Z 13016G22KT 04/03 A2978 RMK A01 T00410027  RH  091%=      5-min Rain = 0
KPD1 230423Z 14015G21KT 04/03 A2978 RMK A01 T00410027  RH  091%=      5-min Rain = 0
KPD1 230424Z 13017KT 04/03 A2978 RMK A01 T00410027  RH  091%=      5-min Rain = 0
KPD1 230425Z 14011G16KT 04/03 A2978 RMK A01 T00410028  RH  091%=      5-min Rain = 0
KPD1 230426Z 14014KT 04/03 A2979 RMK A01 T00410028  RH  091%=      5-min Rain = 0
KPD1 230427Z 14016G21KT 04/03 A2979 RMK A01 T00410028  RH  091%=      5-min Rain = 0
KPD1 230428Z 14012G18KT 04/03 A2978 RMK A01 T00410028  RH  091%=      5-min Rain = 0
KPD1 230429Z 14013G18KT 04/03 A2978 RMK A01 T00410028  RH  091%=      5-min Rain = 0
KPD1 230430Z 14014G19KT 04/03 A2978 RMK A01 T00410028  RH  091%=      5-min Rain = 0
KPD1 230431Z 14009G14KT 04/03 A2978 RMK A01 T00410028  RH  091%=      5-min Rain = 0
KPD1 230432Z 14010KT 04/03 A2979 RMK A01 T00410028  RH  091%=      5-min Rain = 0
KPD1 230433Z 14011KT 04/03 A2979 RMK A01 T00410028  RH  091%=      5-min Rain = 0
KPD1 230434Z 13014KT 04/03 A2979 RMK A01 T00410028  RH  091%=      5-min Rain = 0
KPD1 230435Z 13013KT 04/03 A2979 RMK A01 T00410028  RH  091%=      5-min Rain = 0
KPD1 230436Z 15012G17KT 04/03 A2979 RMK A01 T00410028  RH  091%=      5-min Rain = 0
KPD1 230437Z 14011KT 04/03 A2979 RMK A01 T00410028  RH  091%=      5-min Rain = 0
KPD1 230438Z 15014KT 04/03 A2979 RMK A01 T00410028  RH  091%=      5-min Rain = 0
KPD1 230439Z 14012G17KT 04/03 A2979 RMK A01 T00410028  RH  091%=      5-min Rain = 0
KPD1 230440Z 14011KT 04/03 A2979 RMK A01 T00410028  RH  092%=      5-min Rain = 0
KPD1 230441Z 14011KT 04/03 A2979 RMK A01 T00410029  RH  092%=      5-min Rain = 0
KPD1 230442Z 14010KT 04/03 A2978 RMK A01 T00410029  RH  092%=      5-min Rain = 0
KPD1 230443Z 15009KT 04/03 A2978 RMK A01 T00410029  RH  092%=      5-min Rain = 0
KPD1 230444Z 15009KT 04/03 A2978 RMK A01 T00410029  RH  092%=      5-min Rain = 0
KPD1 230445Z 15009KT 04/03 A2979 RMK A01 T00410029  RH  092%=      5-min Rain = 0
KPD1 230446Z 14008KT 04/03 A2979 RMK A01 T00410029  RH  092%=      5-min Rain = 0
KPD1 230447Z 15010KT 04/03 A2978 RMK A01 T00410029  RH  092%=      5-min Rain = 0
KPD1 230448Z 15011KT 04/03 A2979 RMK A01 T00410029  RH  092%=      5-min Rain = 0
KPD1 230449Z 15010KT 04/03 A2978 RMK A01 T00410029  RH  092%=      5-min Rain = 0
KPD1 230450Z 13008KT 04/03 A2978 RMK A01 T00410029  RH  092%=      5-min Rain = 0
KPD1 230451Z 14008KT 04/03 A2978 RMK A01 T00410029  RH  092%=      5-min Rain = 0
KPD1 230452Z 14008KT 04/03 A2978 RMK A01 T00410029  RH  092%=      5-min Rain = 0
KPD1 230453Z 15009KT 04/03 A2978 RMK A01 T00410029  RH  092%=      5-min Rain = 0
KPD1 230454Z 15011KT 04/03 A2978 RMK A01 T00410029  RH  092%=      5-min Rain = 0
KPD1 230455Z 15009KT 04/03 A2978 RMK A01 T00410029  RH  092%=      5-min Rain = 0
KPD1 230456Z 15008KT 04/03 A2978 RMK A01 T00410030  RH  092%=      5-min Rain = 0
KPD1 230457Z 14008KT 04/03 A2978 RMK A01 T00410030  RH  092%=      5-min Rain = 0
KPD1 230458Z 13010G15KT 04/03 A2978 RMK A01 T00410030  RH  092%=      5-min Rain = 0
KPD1 230459Z 14012KT 04/03 A2977 RMK A01 T00410030  RH  092%=      5-min Rain = 0
KPD1 230500Z 13011KT 04/03 A2977 RMK A01 T00410030  RH  092%=      5-min Rain = 0
KPD1 230501Z 13011KT 04/03 A2977 RMK A01 T00410030  RH  093%=      5-min Rain = 0
KPD1 230502Z 13011KT 04/03 A2977 RMK A01 T00410030  RH  093%=      5-min Rain = 0
KPD1 230503Z 13009KT 04/03 A2977 RMK A01 T00410030  RH  093%=      5-min Rain = 0
KPD1 230504Z 15008KT 04/03 A2977 RMK A01 T00410030  RH  093%=      5-min Rain = 0
KPD1 230505Z 14008KT 04/03 A2977 RMK A01 T00410030  RH  093%=      5-min Rain = 0
KPD1 230506Z 12008G13KT 04/03 A2976 RMK A01 T00410030  RH  093%=      5-min Rain = 0
KPD1 230507Z 12009KT 04/03 A2976 RMK A01 T00410031  RH  093%=      5-min Rain = 0
KPD1 230508Z 14006KT 04/03 A2976 RMK A01 T00410030  RH  093%=      5-min Rain = 0
KPD1 230509Z 13007KT 04/03 A2975 RMK A01 T00410030  RH  093%=      5-min Rain = 0
KPD1 230510Z 13009KT 04/03 A2976 RMK A01 T00410031  RH  093%=      5-min Rain = 0
KPD1 230511Z 15008KT 04/03 A2977 RMK A01 T00410031  RH  093%=      5-min Rain = 0
KPD1 230512Z 15008KT 04/03 A2977 RMK A01 T00410031  RH  093%=      5-min Rain = 0
KPD1 230513Z 12006KT 04/03 A2975 RMK A01 T00410031  RH  093%=      5-min Rain = 0
KPD1 230514Z 14006KT 04/03 A2976 RMK A01 T00410031  RH  093%=      5-min Rain = 0
KPD1 230515Z 15009KT 04/03 A2976 RMK A01 T00410031  RH  093%=      5-min Rain = 0
KPD1 230516Z 15010KT 04/03 A2976 RMK A01 T00410031  RH  094%=      5-min Rain = 0
KPD1 230517Z 15008KT 04/03 A2976 RMK A01 T00410032  RH  094%=      5-min Rain = 0
KPD1 230518Z 15010KT 04/03 A2976 RMK A01 T00410032  RH  094%=      5-min Rain = 0
KPD1 230519Z 14008KT 04/03 A2976 RMK A01 T00410032  RH  094%=      5-min Rain = 0
KPD1 230520Z 14007KT 04/03 A2975 RMK A01 T00410032  RH  094%=      5-min Rain = 0
KPD1 230521Z 14005KT 04/03 A2975 RMK A01 T00410032  RH  094%=      5-min Rain = 0
KPD1 230522Z 17006KT 04/03 A2975 RMK A01 T00410032  RH  094%=      5-min Rain = 0
KPD1 230523Z 15006KT 04/03 A2975 RMK A01 T00410032  RH  094%=      5-min Rain = 0
KPD1 230524Z 17006KT 04/03 A2976 RMK A01 T00410032  RH  094%=      5-min Rain = 0
KPD1 230525Z 16005KT 04/03 A2976 RMK A01 T00410032  RH  094%=      5-min Rain = 0
KPD1 230526Z 16006KT 04/03 A2976 RMK A01 T00410032  RH  094%=      5-min Rain = 0
KPD1 230527Z 17008KT 04/03 A2977 RMK A01 T00410033  RH  094%=      5-min Rain = 0
KPD1 230528Z 17006KT 04/03 A2977 RMK A01 T00410032  RH  094%=      5-min Rain = 0
KPD1 230529Z 18006KT 04/03 A2977 RMK A01 T00410033  RH  094%=      5-min Rain = 0
KPD1 230530Z 17007KT 04/03 A2977 RMK A01 T00410033  RH  094%=      5-min Rain = 0
KPD1 230531Z 18004KT 04/03 A2978 RMK A01 T00410033  RH  094%=      5-min Rain = 0
KPD1 230532Z 20006KT 04/03 A2978 RMK A01 T00410033  RH  094%=      5-min Rain = 0
KPD1 230533Z 19007KT 04/03 A2978 RMK A01 T00410033  RH  094%=      5-min Rain = 0
KPD1 230534Z 18008KT 04/03 A2978 RMK A01 T00410033  RH  095%=      5-min Rain = 0
KPD1 230535Z 18009KT 04/03 A2978 RMK A01 T00410033  RH  095%=      5-min Rain = 0
KPD1 230536Z 18006KT 04/03 A2977 RMK A01 T00410033  RH  095%=      5-min Rain = 0
KPD1 230537Z 16006KT 04/03 A2977 RMK A01 T00410034  RH  095%=      5-min Rain = 0
KPD1 230538Z 17007KT 04/03 A2977 RMK A01 T00410033  RH  095%=      5-min Rain = 0
KPD1 230539Z 17007KT 04/03 A2977 RMK A01 T00410033  RH  095%=      5-min Rain = 0
KPD1 230540Z 16006KT 04/03 A2977 RMK A01 T00410034  RH  095%=      5-min Rain = 0
KPD1 230541Z 16009KT 04/03 A2977 RMK A01 T00410034  RH  095%=      5-min Rain = 0
KPD1 230542Z 16010KT 04/03 A2977 RMK A01 T00410034  RH  095%=      5-min Rain = 0
KPD1 230543Z 16007KT 04/03 A2977 RMK A01 T00410034  RH  095%=      5-min Rain = 0
KPD1 230544Z 15007KT 04/03 A2977 RMK A01 T00420034  RH  095%=      5-min Rain = 0
KPD1 230545Z 15006KT 04/03 A2977 RMK A01 T00420034  RH  095%=      5-min Rain = 0
KPD1 230546Z 14007KT 04/03 A2976 RMK A01 T00410034  RH  095%=      5-min Rain = 0
KPD1 230547Z 15007KT 04/03 A2976 RMK A01 T00410034  RH  095%=      5-min Rain = 0
KPD1 230548Z 15008KT 04/03 A2976 RMK A01 T00410034  RH  095%=      5-min Rain = 0
KPD1 230549Z 15005KT 04/03 A2976 RMK A01 T00420034  RH  095%=      5-min Rain = 0
KPD1 230550Z 16007KT 04/03 A2975 RMK A01 T00410034  RH  095%=      5-min Rain = 0
KPD1 230551Z 15005KT 04/03 A2975 RMK A01 T00420034  RH  095%=      5-min Rain = 0
KPD1 230552Z 14004KT 04/04 A2975 RMK A01 T00420035  RH  095%=      5-min Rain = 0
KPD1 230553Z 14006KT 04/03 A2975 RMK A01 T00410034  RH  095%=      5-min Rain = 0
KPD1 230554Z 14007KT 04/03 A2975 RMK A01 T00410034  RH  095%=      5-min Rain = 0
KPD1 230555Z 14006KT 04/03 A2975 RMK A01 T00420034  RH  095%=      5-min Rain = 0
KPD1 230556Z 14007KT 04/04 A2975 RMK A01 T00420035  RH  095%=      5-min Rain = 0
KPD1 230557Z 13007KT 04/03 A2974 RMK A01 T00420034  RH  095%=      5-min Rain = 0
KPD1 230558Z 13008KT 04/03 A2974 RMK A01 T00420034  RH  095%=      5-min Rain = 0
KPD1 230559Z 12005KT 04/04 A2974 RMK A01 T00420035  RH  095%=      5-min Rain = 0

Page generated in 0.1806 seconds.